<?xml version="1.0" encoding="utf-8"?>
<gpx xmlns:xsi="http://www.w3.org/2001/XMLSchema-instance" xmlns:xsd="http://www.w3.org/2001/XMLSchema" version="1.1" creator="Shapelink.com" xmlns="http://www.topografix.com/GPX/1/1" xmlns:gpxtpx="http://www.garmin.com/xmlschemas/TrackPointExtension/v1">
  <metadata>
    <name>Längdskidåkning - Skate 14.85 km, 2011-01-30</name>
    <desc></desc>
    <author><name>Alexander Engvall</name></author> 
    <time>2011-01-30T14:28:02Z</time>
  </metadata>
  <trk>
    <name>Längdskidåkning - Skate 14.85 km, 2011-01-30</name>
    <trkseg>
      <trkpt lat="59.5481805" lon="17.4933058">
        <ele>25.4</ele>
        <time>2011-01-30T14:28:02Z</time>
      </trkpt>
      <trkpt lat="59.5480103" lon="17.4934566">
        <ele>23</ele>
        <time>2011-01-30T14:28:06Z</time>
      </trkpt>
      <trkpt lat="59.5478625" lon="17.4935791">
        <ele>20.6</ele>
        <time>2011-01-30T14:28:10Z</time>
      </trkpt>
      <trkpt lat="59.5478294" lon="17.4936057">
        <ele>20.6</ele>
        <time>2011-01-30T14:28:11Z</time>
      </trkpt>
      <trkpt lat="59.5475254" lon="17.4936682">
        <ele>26</ele>
        <time>2011-01-30T14:28:48Z</time>
      </trkpt>
      <trkpt lat="59.547351" lon="17.4936718">
        <ele>24.2</ele>
        <time>2011-01-30T14:28:52Z</time>
      </trkpt>
      <trkpt lat="59.5471457" lon="17.4936082">
        <ele>24.8</ele>
        <time>2011-01-30T14:28:57Z</time>
      </trkpt>
      <trkpt lat="59.5469784" lon="17.4933809">
        <ele>30.8</ele>
        <time>2011-01-30T14:29:03Z</time>
      </trkpt>
      <trkpt lat="59.5468116" lon="17.4931927">
        <ele>35</ele>
        <time>2011-01-30T14:29:08Z</time>
      </trkpt>
      <trkpt lat="59.5466394" lon="17.4929835">
        <ele>36.8</ele>
        <time>2011-01-30T14:29:13Z</time>
      </trkpt>
      <trkpt lat="59.5465173" lon="17.492647">
        <ele>36.8</ele>
        <time>2011-01-30T14:29:18Z</time>
      </trkpt>
      <trkpt lat="59.5464237" lon="17.4923963">
        <ele>38.4</ele>
        <time>2011-01-30T14:29:22Z</time>
      </trkpt>
      <trkpt lat="59.5464041" lon="17.4923485">
        <ele>37.8</ele>
        <time>2011-01-30T14:29:23Z</time>
      </trkpt>
      <trkpt lat="59.5462787" lon="17.4920263">
        <ele>37</ele>
        <time>2011-01-30T14:29:28Z</time>
      </trkpt>
      <trkpt lat="59.5462159" lon="17.491875">
        <ele>34.8</ele>
        <time>2011-01-30T14:29:30Z</time>
      </trkpt>
      <trkpt lat="59.5461596" lon="17.491706">
        <ele>35.2</ele>
        <time>2011-01-30T14:29:32Z</time>
      </trkpt>
      <trkpt lat="59.5461129" lon="17.491455">
        <ele>33.6</ele>
        <time>2011-01-30T14:29:35Z</time>
      </trkpt>
      <trkpt lat="59.546101" lon="17.4913736">
        <ele>33.2</ele>
        <time>2011-01-30T14:29:36Z</time>
      </trkpt>
      <trkpt lat="59.5460953" lon="17.49129">
        <ele>32.8</ele>
        <time>2011-01-30T14:29:37Z</time>
      </trkpt>
      <trkpt lat="59.5460839" lon="17.4912009">
        <ele>32.6</ele>
        <time>2011-01-30T14:29:38Z</time>
      </trkpt>
      <trkpt lat="59.5460267" lon="17.4909469">
        <ele>32</ele>
        <time>2011-01-30T14:29:41Z</time>
      </trkpt>
      <trkpt lat="59.5458549" lon="17.4907965">
        <ele>26.8</ele>
        <time>2011-01-30T14:29:45Z</time>
      </trkpt>
      <trkpt lat="59.5457498" lon="17.490738">
        <ele>25.2</ele>
        <time>2011-01-30T14:29:47Z</time>
      </trkpt>
      <trkpt lat="59.5456949" lon="17.4907215">
        <ele>24.8</ele>
        <time>2011-01-30T14:29:48Z</time>
      </trkpt>
      <trkpt lat="59.5456557" lon="17.4906847">
        <ele>24.2</ele>
        <time>2011-01-30T14:29:49Z</time>
      </trkpt>
      <trkpt lat="59.5455808" lon="17.4906043">
        <ele>25</ele>
        <time>2011-01-30T14:29:51Z</time>
      </trkpt>
      <trkpt lat="59.5454892" lon="17.4905265">
        <ele>26.4</ele>
        <time>2011-01-30T14:29:53Z</time>
      </trkpt>
      <trkpt lat="59.5453571" lon="17.4902837">
        <ele>24.4</ele>
        <time>2011-01-30T14:29:57Z</time>
      </trkpt>
      <trkpt lat="59.5453105" lon="17.4900212">
        <ele>25.4</ele>
        <time>2011-01-30T14:30:00Z</time>
      </trkpt>
      <trkpt lat="59.5453016" lon="17.4899412">
        <ele>26</ele>
        <time>2011-01-30T14:30:01Z</time>
      </trkpt>
      <trkpt lat="59.545353" lon="17.4895704">
        <ele>26</ele>
        <time>2011-01-30T14:30:05Z</time>
      </trkpt>
      <trkpt lat="59.5454285" lon="17.4892911">
        <ele>27</ele>
        <time>2011-01-30T14:30:08Z</time>
      </trkpt>
      <trkpt lat="59.5454454" lon="17.4892057">
        <ele>27.4</ele>
        <time>2011-01-30T14:30:09Z</time>
      </trkpt>
      <trkpt lat="59.5454696" lon="17.4891322">
        <ele>28.2</ele>
        <time>2011-01-30T14:30:10Z</time>
      </trkpt>
      <trkpt lat="59.5456041" lon="17.4890523">
        <ele>29.6</ele>
        <time>2011-01-30T14:30:15Z</time>
      </trkpt>
      <trkpt lat="59.5456963" lon="17.4891245">
        <ele>30.8</ele>
        <time>2011-01-30T14:30:18Z</time>
      </trkpt>
      <trkpt lat="59.5457854" lon="17.4891938">
        <ele>33</ele>
        <time>2011-01-30T14:30:19Z</time>
      </trkpt>
      <trkpt lat="59.5458755" lon="17.4892897">
        <ele>32.6</ele>
        <time>2011-01-30T14:30:21Z</time>
      </trkpt>
      <trkpt lat="59.5459738" lon="17.4893124">
        <ele>32.8</ele>
        <time>2011-01-30T14:30:23Z</time>
      </trkpt>
      <trkpt lat="59.5461035" lon="17.4892296">
        <ele>33.8</ele>
        <time>2011-01-30T14:30:26Z</time>
      </trkpt>
      <trkpt lat="59.546143" lon="17.4891861">
        <ele>34.6</ele>
        <time>2011-01-30T14:30:27Z</time>
      </trkpt>
      <trkpt lat="59.5463066" lon="17.4889597">
        <ele>37.8</ele>
        <time>2011-01-30T14:30:32Z</time>
      </trkpt>
      <trkpt lat="59.5464495" lon="17.4888596">
        <ele>37.4</ele>
        <time>2011-01-30T14:30:36Z</time>
      </trkpt>
      <trkpt lat="59.5464892" lon="17.4888372">
        <ele>37.2</ele>
        <time>2011-01-30T14:30:38Z</time>
      </trkpt>
      <trkpt lat="59.5465366" lon="17.4888274">
        <ele>37.6</ele>
        <time>2011-01-30T14:30:39Z</time>
      </trkpt>
      <trkpt lat="59.5466754" lon="17.4889141">
        <ele>39.8</ele>
        <time>2011-01-30T14:30:42Z</time>
      </trkpt>
      <trkpt lat="59.5468619" lon="17.4889588">
        <ele>40.8</ele>
        <time>2011-01-30T14:30:48Z</time>
      </trkpt>
      <trkpt lat="59.5470629" lon="17.4889276">
        <ele>43.4</ele>
        <time>2011-01-30T14:30:53Z</time>
      </trkpt>
      <trkpt lat="59.5471079" lon="17.4889208">
        <ele>44.6</ele>
        <time>2011-01-30T14:30:55Z</time>
      </trkpt>
      <trkpt lat="59.54728" lon="17.4889756">
        <ele>45</ele>
        <time>2011-01-30T14:30:57Z</time>
      </trkpt>
      <trkpt lat="59.5473297" lon="17.4890239">
        <ele>44.6</ele>
        <time>2011-01-30T14:30:58Z</time>
      </trkpt>
      <trkpt lat="59.5474296" lon="17.4890996">
        <ele>45.4</ele>
        <time>2011-01-30T14:31:00Z</time>
      </trkpt>
      <trkpt lat="59.5474767" lon="17.4891244">
        <ele>45.2</ele>
        <time>2011-01-30T14:31:02Z</time>
      </trkpt>
      <trkpt lat="59.5475213" lon="17.4891389">
        <ele>45.4</ele>
        <time>2011-01-30T14:31:03Z</time>
      </trkpt>
      <trkpt lat="59.5476855" lon="17.489004">
        <ele>43.8</ele>
        <time>2011-01-30T14:31:07Z</time>
      </trkpt>
      <trkpt lat="59.5477154" lon="17.4889409">
        <ele>43.8</ele>
        <time>2011-01-30T14:31:09Z</time>
      </trkpt>
      <trkpt lat="59.547797" lon="17.4886867">
        <ele>42.4</ele>
        <time>2011-01-30T14:31:12Z</time>
      </trkpt>
      <trkpt lat="59.5479195" lon="17.4883804">
        <ele>40.6</ele>
        <time>2011-01-30T14:31:18Z</time>
      </trkpt>
      <trkpt lat="59.5480754" lon="17.488184">
        <ele>40.6</ele>
        <time>2011-01-30T14:31:23Z</time>
      </trkpt>
      <trkpt lat="59.5482251" lon="17.4879724">
        <ele>40.4</ele>
        <time>2011-01-30T14:31:27Z</time>
      </trkpt>
      <trkpt lat="59.5482942" lon="17.4878839">
        <ele>40.4</ele>
        <time>2011-01-30T14:31:29Z</time>
      </trkpt>
      <trkpt lat="59.5483745" lon="17.487776">
        <ele>40.6</ele>
        <time>2011-01-30T14:31:31Z</time>
      </trkpt>
      <trkpt lat="59.5484245" lon="17.4877175">
        <ele>39.8</ele>
        <time>2011-01-30T14:31:32Z</time>
      </trkpt>
      <trkpt lat="59.5484983" lon="17.4875733">
        <ele>38</ele>
        <time>2011-01-30T14:31:34Z</time>
      </trkpt>
      <trkpt lat="59.548535" lon="17.4875009">
        <ele>36.2</ele>
        <time>2011-01-30T14:31:35Z</time>
      </trkpt>
      <trkpt lat="59.5486345" lon="17.4871205">
        <ele>36.4</ele>
        <time>2011-01-30T14:31:38Z</time>
      </trkpt>
      <trkpt lat="59.5486415" lon="17.4866986">
        <ele>37.6</ele>
        <time>2011-01-30T14:31:41Z</time>
      </trkpt>
      <trkpt lat="59.5486221" lon="17.486573">
        <ele>37.8</ele>
        <time>2011-01-30T14:31:42Z</time>
      </trkpt>
      <trkpt lat="59.5485716" lon="17.4862743">
        <ele>36.6</ele>
        <time>2011-01-30T14:31:44Z</time>
      </trkpt>
      <trkpt lat="59.5485224" lon="17.4860065">
        <ele>35</ele>
        <time>2011-01-30T14:31:48Z</time>
      </trkpt>
      <trkpt lat="59.5485014" lon="17.4859268">
        <ele>34.2</ele>
        <time>2011-01-30T14:31:49Z</time>
      </trkpt>
      <trkpt lat="59.5484514" lon="17.4857936">
        <ele>33.2</ele>
        <time>2011-01-30T14:31:51Z</time>
      </trkpt>
      <trkpt lat="59.548349" lon="17.4856232">
        <ele>32.8</ele>
        <time>2011-01-30T14:31:54Z</time>
      </trkpt>
      <trkpt lat="59.5481782" lon="17.4854492">
        <ele>32.4</ele>
        <time>2011-01-30T14:31:58Z</time>
      </trkpt>
      <trkpt lat="59.5480081" lon="17.4853409">
        <ele>32</ele>
        <time>2011-01-30T14:32:02Z</time>
      </trkpt>
      <trkpt lat="59.5479165" lon="17.4853092">
        <ele>30.6</ele>
        <time>2011-01-30T14:32:05Z</time>
      </trkpt>
      <trkpt lat="59.5478175" lon="17.4853314">
        <ele>31.2</ele>
        <time>2011-01-30T14:32:07Z</time>
      </trkpt>
      <trkpt lat="59.5477241" lon="17.4853362">
        <ele>33.2</ele>
        <time>2011-01-30T14:32:09Z</time>
      </trkpt>
      <trkpt lat="59.5476408" lon="17.4853216">
        <ele>32.8</ele>
        <time>2011-01-30T14:32:11Z</time>
      </trkpt>
      <trkpt lat="59.5476015" lon="17.4853093">
        <ele>32.2</ele>
        <time>2011-01-30T14:32:12Z</time>
      </trkpt>
      <trkpt lat="59.5475268" lon="17.4853077">
        <ele>32.4</ele>
        <time>2011-01-30T14:32:14Z</time>
      </trkpt>
      <trkpt lat="59.5474182" lon="17.4853538">
        <ele>34</ele>
        <time>2011-01-30T14:32:17Z</time>
      </trkpt>
      <trkpt lat="59.5473924" lon="17.4853769">
        <ele>33.6</ele>
        <time>2011-01-30T14:32:18Z</time>
      </trkpt>
      <trkpt lat="59.5472758" lon="17.4855382">
        <ele>33.4</ele>
        <time>2011-01-30T14:32:23Z</time>
      </trkpt>
      <trkpt lat="59.5472522" lon="17.4855666">
        <ele>34</ele>
        <time>2011-01-30T14:32:24Z</time>
      </trkpt>
      <trkpt lat="59.5470934" lon="17.485761">
        <ele>34.8</ele>
        <time>2011-01-30T14:32:31Z</time>
      </trkpt>
      <trkpt lat="59.5469293" lon="17.4859298">
        <ele>35.8</ele>
        <time>2011-01-30T14:32:35Z</time>
      </trkpt>
      <trkpt lat="59.546768" lon="17.4861433">
        <ele>34</ele>
        <time>2011-01-30T14:32:42Z</time>
      </trkpt>
      <trkpt lat="59.5466112" lon="17.4864065">
        <ele>36.2</ele>
        <time>2011-01-30T14:32:48Z</time>
      </trkpt>
      <trkpt lat="59.5464452" lon="17.486525">
        <ele>34.8</ele>
        <time>2011-01-30T14:32:51Z</time>
      </trkpt>
      <trkpt lat="59.5462454" lon="17.4865495">
        <ele>31.8</ele>
        <time>2011-01-30T14:32:54Z</time>
      </trkpt>
      <trkpt lat="59.5460637" lon="17.4865587">
        <ele>32.6</ele>
        <time>2011-01-30T14:32:57Z</time>
      </trkpt>
      <trkpt lat="59.5460082" lon="17.4865623">
        <ele>32.6</ele>
        <time>2011-01-30T14:32:58Z</time>
      </trkpt>
      <trkpt lat="59.5457749" lon="17.4864725">
        <ele>30.6</ele>
        <time>2011-01-30T14:33:02Z</time>
      </trkpt>
      <trkpt lat="59.5456177" lon="17.4862619">
        <ele>27.8</ele>
        <time>2011-01-30T14:33:05Z</time>
      </trkpt>
      <trkpt lat="59.545524" lon="17.4861163">
        <ele>27.4</ele>
        <time>2011-01-30T14:33:07Z</time>
      </trkpt>
      <trkpt lat="59.5454808" lon="17.4859287">
        <ele>28.6</ele>
        <time>2011-01-30T14:33:09Z</time>
      </trkpt>
      <trkpt lat="59.5454587" lon="17.485705">
        <ele>28.8</ele>
        <time>2011-01-30T14:33:11Z</time>
      </trkpt>
      <trkpt lat="59.5454472" lon="17.4855816">
        <ele>28.8</ele>
        <time>2011-01-30T14:33:12Z</time>
      </trkpt>
      <trkpt lat="59.5454015" lon="17.485165">
        <ele>28.4</ele>
        <time>2011-01-30T14:33:15Z</time>
      </trkpt>
      <trkpt lat="59.5453579" lon="17.4847641">
        <ele>28.6</ele>
        <time>2011-01-30T14:33:18Z</time>
      </trkpt>
      <trkpt lat="59.5453504" lon="17.4846494">
        <ele>30</ele>
        <time>2011-01-30T14:33:19Z</time>
      </trkpt>
      <trkpt lat="59.5453781" lon="17.4843588">
        <ele>32.6</ele>
        <time>2011-01-30T14:33:22Z</time>
      </trkpt>
      <trkpt lat="59.545405" lon="17.4842851">
        <ele>33.2</ele>
        <time>2011-01-30T14:33:23Z</time>
      </trkpt>
      <trkpt lat="59.545443" lon="17.484244">
        <ele>33</ele>
        <time>2011-01-30T14:33:24Z</time>
      </trkpt>
      <trkpt lat="59.5455219" lon="17.4841727">
        <ele>32.6</ele>
        <time>2011-01-30T14:33:26Z</time>
      </trkpt>
      <trkpt lat="59.5455633" lon="17.4841438">
        <ele>32.6</ele>
        <time>2011-01-30T14:33:27Z</time>
      </trkpt>
      <trkpt lat="59.5455989" lon="17.4841073">
        <ele>34.2</ele>
        <time>2011-01-30T14:33:28Z</time>
      </trkpt>
      <trkpt lat="59.5457288" lon="17.4839376">
        <ele>35</ele>
        <time>2011-01-30T14:33:32Z</time>
      </trkpt>
      <trkpt lat="59.5458342" lon="17.4838423">
        <ele>35</ele>
        <time>2011-01-30T14:33:35Z</time>
      </trkpt>
      <trkpt lat="59.5458803" lon="17.4838366">
        <ele>35.8</ele>
        <time>2011-01-30T14:33:36Z</time>
      </trkpt>
      <trkpt lat="59.545931" lon="17.4838573">
        <ele>36.8</ele>
        <time>2011-01-30T14:33:37Z</time>
      </trkpt>
      <trkpt lat="59.5460527" lon="17.48415">
        <ele>37</ele>
        <time>2011-01-30T14:33:41Z</time>
      </trkpt>
      <trkpt lat="59.54609" lon="17.4843069">
        <ele>38</ele>
        <time>2011-01-30T14:33:43Z</time>
      </trkpt>
      <trkpt lat="59.5461023" lon="17.4843687">
        <ele>37.8</ele>
        <time>2011-01-30T14:33:44Z</time>
      </trkpt>
      <trkpt lat="59.5461269" lon="17.4844887">
        <ele>39.2</ele>
        <time>2011-01-30T14:33:46Z</time>
      </trkpt>
      <trkpt lat="59.5461427" lon="17.4845503">
        <ele>39.8</ele>
        <time>2011-01-30T14:33:47Z</time>
      </trkpt>
      <trkpt lat="59.5461993" lon="17.4848717">
        <ele>39.2</ele>
        <time>2011-01-30T14:33:53Z</time>
      </trkpt>
      <trkpt lat="59.5462522" lon="17.4850745">
        <ele>40.6</ele>
        <time>2011-01-30T14:33:58Z</time>
      </trkpt>
      <trkpt lat="59.5462948" lon="17.4851916">
        <ele>43.2</ele>
        <time>2011-01-30T14:34:02Z</time>
      </trkpt>
      <trkpt lat="59.5463383" lon="17.4854164">
        <ele>44.4</ele>
        <time>2011-01-30T14:34:08Z</time>
      </trkpt>
      <trkpt lat="59.5463533" lon="17.4855218">
        <ele>45.6</ele>
        <time>2011-01-30T14:34:10Z</time>
      </trkpt>
      <trkpt lat="59.5464266" lon="17.4858725">
        <ele>48.6</ele>
        <time>2011-01-30T14:34:16Z</time>
      </trkpt>
      <trkpt lat="59.5465916" lon="17.486124">
        <ele>45.4</ele>
        <time>2011-01-30T14:34:21Z</time>
      </trkpt>
      <trkpt lat="59.5467448" lon="17.48609">
        <ele>46</ele>
        <time>2011-01-30T14:34:24Z</time>
      </trkpt>
      <trkpt lat="59.5467933" lon="17.4860329">
        <ele>45.4</ele>
        <time>2011-01-30T14:34:25Z</time>
      </trkpt>
      <trkpt lat="59.5469738" lon="17.4857771">
        <ele>39.8</ele>
        <time>2011-01-30T14:34:29Z</time>
      </trkpt>
      <trkpt lat="59.5470238" lon="17.4857064">
        <ele>39.8</ele>
        <time>2011-01-30T14:34:30Z</time>
      </trkpt>
      <trkpt lat="59.5471261" lon="17.4855611">
        <ele>40.8</ele>
        <time>2011-01-30T14:34:32Z</time>
      </trkpt>
      <trkpt lat="59.5472794" lon="17.4853429">
        <ele>41.8</ele>
        <time>2011-01-30T14:34:35Z</time>
      </trkpt>
      <trkpt lat="59.5473773" lon="17.4851576">
        <ele>42</ele>
        <time>2011-01-30T14:34:37Z</time>
      </trkpt>
      <trkpt lat="59.5474108" lon="17.4850441">
        <ele>41.2</ele>
        <time>2011-01-30T14:34:38Z</time>
      </trkpt>
      <trkpt lat="59.5474167" lon="17.484598">
        <ele>40.4</ele>
        <time>2011-01-30T14:34:41Z</time>
      </trkpt>
      <trkpt lat="59.5473379" lon="17.4842608">
        <ele>36.6</ele>
        <time>2011-01-30T14:34:44Z</time>
      </trkpt>
      <trkpt lat="59.5472701" lon="17.4841152">
        <ele>35.6</ele>
        <time>2011-01-30T14:34:46Z</time>
      </trkpt>
      <trkpt lat="59.5472328" lon="17.4840649">
        <ele>35.4</ele>
        <time>2011-01-30T14:34:47Z</time>
      </trkpt>
      <trkpt lat="59.547153" lon="17.4840183">
        <ele>35.4</ele>
        <time>2011-01-30T14:34:49Z</time>
      </trkpt>
      <trkpt lat="59.5469565" lon="17.4840903">
        <ele>32.8</ele>
        <time>2011-01-30T14:34:57Z</time>
      </trkpt>
      <trkpt lat="59.5467746" lon="17.4842484">
        <ele>36.2</ele>
        <time>2011-01-30T14:35:03Z</time>
      </trkpt>
      <trkpt lat="59.5466913" lon="17.4842256">
        <ele>36.8</ele>
        <time>2011-01-30T14:35:07Z</time>
      </trkpt>
      <trkpt lat="59.5465847" lon="17.4841332">
        <ele>36</ele>
        <time>2011-01-30T14:35:10Z</time>
      </trkpt>
      <trkpt lat="59.5463692" lon="17.4839281">
        <ele>36.6</ele>
        <time>2011-01-30T14:35:14Z</time>
      </trkpt>
      <trkpt lat="59.546219" lon="17.4837412">
        <ele>37</ele>
        <time>2011-01-30T14:35:16Z</time>
      </trkpt>
      <trkpt lat="59.5460744" lon="17.4833523">
        <ele>35.2</ele>
        <time>2011-01-30T14:35:19Z</time>
      </trkpt>
      <trkpt lat="59.5460527" lon="17.4829814">
        <ele>36</ele>
        <time>2011-01-30T14:35:21Z</time>
      </trkpt>
      <trkpt lat="59.5460624" lon="17.4828626">
        <ele>36</ele>
        <time>2011-01-30T14:35:23Z</time>
      </trkpt>
      <trkpt lat="59.5461145" lon="17.4825483">
        <ele>35.6</ele>
        <time>2011-01-30T14:35:26Z</time>
      </trkpt>
      <trkpt lat="59.546137" lon="17.4824618">
        <ele>34.8</ele>
        <time>2011-01-30T14:35:27Z</time>
      </trkpt>
      <trkpt lat="59.546221" lon="17.4822472">
        <ele>33.2</ele>
        <time>2011-01-30T14:35:30Z</time>
      </trkpt>
      <trkpt lat="59.5463887" lon="17.482237">
        <ele>31.6</ele>
        <time>2011-01-30T14:35:33Z</time>
      </trkpt>
      <trkpt lat="59.5464277" lon="17.482231">
        <ele>31.2</ele>
        <time>2011-01-30T14:35:35Z</time>
      </trkpt>
      <trkpt lat="59.5464722" lon="17.4822292">
        <ele>30.2</ele>
        <time>2011-01-30T14:35:36Z</time>
      </trkpt>
      <trkpt lat="59.546609" lon="17.4822038">
        <ele>29.4</ele>
        <time>2011-01-30T14:35:39Z</time>
      </trkpt>
      <trkpt lat="59.5466935" lon="17.4821619">
        <ele>29.4</ele>
        <time>2011-01-30T14:35:41Z</time>
      </trkpt>
      <trkpt lat="59.5468111" lon="17.48211">
        <ele>33.4</ele>
        <time>2011-01-30T14:35:44Z</time>
      </trkpt>
      <trkpt lat="59.5468435" lon="17.4821003">
        <ele>34</ele>
        <time>2011-01-30T14:35:45Z</time>
      </trkpt>
      <trkpt lat="59.5468734" lon="17.4820816">
        <ele>34</ele>
        <time>2011-01-30T14:35:46Z</time>
      </trkpt>
      <trkpt lat="59.5469814" lon="17.4819366">
        <ele>38.2</ele>
        <time>2011-01-30T14:35:50Z</time>
      </trkpt>
      <trkpt lat="59.5470469" lon="17.4817815">
        <ele>39.2</ele>
        <time>2011-01-30T14:35:56Z</time>
      </trkpt>
      <trkpt lat="59.5470484" lon="17.4816023">
        <ele>39</ele>
        <time>2011-01-30T14:36:00Z</time>
      </trkpt>
      <trkpt lat="59.5470414" lon="17.4815401">
        <ele>38.6</ele>
        <time>2011-01-30T14:36:01Z</time>
      </trkpt>
      <trkpt lat="59.5470043" lon="17.4812639">
        <ele>36.6</ele>
        <time>2011-01-30T14:36:05Z</time>
      </trkpt>
      <trkpt lat="59.5468836" lon="17.4810185">
        <ele>35.4</ele>
        <time>2011-01-30T14:36:09Z</time>
      </trkpt>
      <trkpt lat="59.5466952" lon="17.4809186">
        <ele>34.4</ele>
        <time>2011-01-30T14:36:12Z</time>
      </trkpt>
      <trkpt lat="59.5465718" lon="17.4808471">
        <ele>34.2</ele>
        <time>2011-01-30T14:36:14Z</time>
      </trkpt>
      <trkpt lat="59.546478" lon="17.4807332">
        <ele>34</ele>
        <time>2011-01-30T14:36:16Z</time>
      </trkpt>
      <trkpt lat="59.5463692" lon="17.480385">
        <ele>32.6</ele>
        <time>2011-01-30T14:36:20Z</time>
      </trkpt>
      <trkpt lat="59.5463448" lon="17.4800892">
        <ele>32.6</ele>
        <time>2011-01-30T14:36:24Z</time>
      </trkpt>
      <trkpt lat="59.5463323" lon="17.4800321">
        <ele>33.2</ele>
        <time>2011-01-30T14:36:25Z</time>
      </trkpt>
      <trkpt lat="59.5463164" lon="17.4799737">
        <ele>33.4</ele>
        <time>2011-01-30T14:36:26Z</time>
      </trkpt>
      <trkpt lat="59.5463072" lon="17.4799115">
        <ele>33</ele>
        <time>2011-01-30T14:36:27Z</time>
      </trkpt>
      <trkpt lat="59.5462615" lon="17.4795854">
        <ele>32.8</ele>
        <time>2011-01-30T14:36:33Z</time>
      </trkpt>
      <trkpt lat="59.5462992" lon="17.4792509">
        <ele>33.6</ele>
        <time>2011-01-30T14:36:38Z</time>
      </trkpt>
      <trkpt lat="59.5463734" lon="17.4789326">
        <ele>33.8</ele>
        <time>2011-01-30T14:36:42Z</time>
      </trkpt>
      <trkpt lat="59.5463827" lon="17.4786782">
        <ele>33.8</ele>
        <time>2011-01-30T14:36:45Z</time>
      </trkpt>
      <trkpt lat="59.5463796" lon="17.4785817">
        <ele>34.2</ele>
        <time>2011-01-30T14:36:46Z</time>
      </trkpt>
      <trkpt lat="59.5464152" lon="17.4781964">
        <ele>34.8</ele>
        <time>2011-01-30T14:36:52Z</time>
      </trkpt>
      <trkpt lat="59.5465623" lon="17.4778971">
        <ele>31.6</ele>
        <time>2011-01-30T14:36:57Z</time>
      </trkpt>
      <trkpt lat="59.5466458" lon="17.4777299">
        <ele>31</ele>
        <time>2011-01-30T14:36:59Z</time>
      </trkpt>
      <trkpt lat="59.5466903" lon="17.4776117">
        <ele>32.8</ele>
        <time>2011-01-30T14:37:00Z</time>
      </trkpt>
      <trkpt lat="59.5467477" lon="17.4773677">
        <ele>33</ele>
        <time>2011-01-30T14:37:02Z</time>
      </trkpt>
      <trkpt lat="59.5467607" lon="17.4772546">
        <ele>32.4</ele>
        <time>2011-01-30T14:37:03Z</time>
      </trkpt>
      <trkpt lat="59.5467847" lon="17.4770428">
        <ele>33.2</ele>
        <time>2011-01-30T14:37:05Z</time>
      </trkpt>
      <trkpt lat="59.5467558" lon="17.476832">
        <ele>32.6</ele>
        <time>2011-01-30T14:37:08Z</time>
      </trkpt>
      <trkpt lat="59.546709" lon="17.4766585">
        <ele>33.4</ele>
        <time>2011-01-30T14:37:11Z</time>
      </trkpt>
      <trkpt lat="59.5466627" lon="17.4765528">
        <ele>34.8</ele>
        <time>2011-01-30T14:37:14Z</time>
      </trkpt>
      <trkpt lat="59.5466386" lon="17.476541">
        <ele>35.4</ele>
        <time>2011-01-30T14:37:15Z</time>
      </trkpt>
      <trkpt lat="59.5465878" lon="17.4765464">
        <ele>34.8</ele>
        <time>2011-01-30T14:37:17Z</time>
      </trkpt>
      <trkpt lat="59.546477" lon="17.4766952">
        <ele>37.4</ele>
        <time>2011-01-30T14:37:21Z</time>
      </trkpt>
      <trkpt lat="59.5463081" lon="17.4769577">
        <ele>37.6</ele>
        <time>2011-01-30T14:37:25Z</time>
      </trkpt>
      <trkpt lat="59.5461458" lon="17.4770504">
        <ele>36.2</ele>
        <time>2011-01-30T14:37:28Z</time>
      </trkpt>
      <trkpt lat="59.5460884" lon="17.4770863">
        <ele>36.2</ele>
        <time>2011-01-30T14:37:29Z</time>
      </trkpt>
      <trkpt lat="59.5460253" lon="17.4771294">
        <ele>35.4</ele>
        <time>2011-01-30T14:37:30Z</time>
      </trkpt>
      <trkpt lat="59.5459139" lon="17.4772283">
        <ele>35.6</ele>
        <time>2011-01-30T14:37:32Z</time>
      </trkpt>
      <trkpt lat="59.5458036" lon="17.4772843">
        <ele>34</ele>
        <time>2011-01-30T14:37:34Z</time>
      </trkpt>
      <trkpt lat="59.5457393" lon="17.477279">
        <ele>33.2</ele>
        <time>2011-01-30T14:37:35Z</time>
      </trkpt>
      <trkpt lat="59.5455424" lon="17.4771014">
        <ele>32.6</ele>
        <time>2011-01-30T14:37:38Z</time>
      </trkpt>
      <trkpt lat="59.5454487" lon="17.4767728">
        <ele>33</ele>
        <time>2011-01-30T14:37:41Z</time>
      </trkpt>
      <trkpt lat="59.545459" lon="17.4765193">
        <ele>34.4</ele>
        <time>2011-01-30T14:37:43Z</time>
      </trkpt>
      <trkpt lat="59.5454601" lon="17.4763803">
        <ele>34</ele>
        <time>2011-01-30T14:37:44Z</time>
      </trkpt>
      <trkpt lat="59.5454416" lon="17.4760393">
        <ele>31.8</ele>
        <time>2011-01-30T14:37:47Z</time>
      </trkpt>
      <trkpt lat="59.5454327" lon="17.4759333">
        <ele>31.4</ele>
        <time>2011-01-30T14:37:48Z</time>
      </trkpt>
      <trkpt lat="59.5454275" lon="17.4758484">
        <ele>31.2</ele>
        <time>2011-01-30T14:37:49Z</time>
      </trkpt>
      <trkpt lat="59.545347" lon="17.4755339">
        <ele>29</ele>
        <time>2011-01-30T14:37:53Z</time>
      </trkpt>
      <trkpt lat="59.5453969" lon="17.4751314">
        <ele>26.4</ele>
        <time>2011-01-30T14:37:57Z</time>
      </trkpt>
      <trkpt lat="59.5455197" lon="17.4748128">
        <ele>23.2</ele>
        <time>2011-01-30T14:38:01Z</time>
      </trkpt>
      <trkpt lat="59.5455642" lon="17.474747">
        <ele>24.2</ele>
        <time>2011-01-30T14:38:02Z</time>
      </trkpt>
      <trkpt lat="59.5456547" lon="17.4746322">
        <ele>27</ele>
        <time>2011-01-30T14:38:04Z</time>
      </trkpt>
      <trkpt lat="59.5456943" lon="17.4745932">
        <ele>26.8</ele>
        <time>2011-01-30T14:38:05Z</time>
      </trkpt>
      <trkpt lat="59.5458687" lon="17.4744253">
        <ele>30.6</ele>
        <time>2011-01-30T14:38:09Z</time>
      </trkpt>
      <trkpt lat="59.5459096" lon="17.4743751">
        <ele>32.4</ele>
        <time>2011-01-30T14:38:10Z</time>
      </trkpt>
      <trkpt lat="59.5460192" lon="17.4742513">
        <ele>35.6</ele>
        <time>2011-01-30T14:38:13Z</time>
      </trkpt>
      <trkpt lat="59.5460412" lon="17.474206">
        <ele>36.2</ele>
        <time>2011-01-30T14:38:14Z</time>
      </trkpt>
      <trkpt lat="59.5460596" lon="17.4741258">
        <ele>36.2</ele>
        <time>2011-01-30T14:38:16Z</time>
      </trkpt>
      <trkpt lat="59.5460029" lon="17.4738087">
        <ele>35.2</ele>
        <time>2011-01-30T14:38:20Z</time>
      </trkpt>
      <trkpt lat="59.5459572" lon="17.4736046">
        <ele>35.2</ele>
        <time>2011-01-30T14:38:22Z</time>
      </trkpt>
      <trkpt lat="59.5459391" lon="17.4734799">
        <ele>35</ele>
        <time>2011-01-30T14:38:23Z</time>
      </trkpt>
      <trkpt lat="59.5459388" lon="17.4732956">
        <ele>34.8</ele>
        <time>2011-01-30T14:38:24Z</time>
      </trkpt>
      <trkpt lat="59.5460016" lon="17.4730987">
        <ele>34.6</ele>
        <time>2011-01-30T14:38:26Z</time>
      </trkpt>
      <trkpt lat="59.5462189" lon="17.4728398">
        <ele>35.4</ele>
        <time>2011-01-30T14:38:31Z</time>
      </trkpt>
      <trkpt lat="59.5462447" lon="17.4727646">
        <ele>36.2</ele>
        <time>2011-01-30T14:38:32Z</time>
      </trkpt>
      <trkpt lat="59.5462765" lon="17.4727209">
        <ele>36.6</ele>
        <time>2011-01-30T14:38:33Z</time>
      </trkpt>
      <trkpt lat="59.5464006" lon="17.4726018">
        <ele>38.2</ele>
        <time>2011-01-30T14:38:37Z</time>
      </trkpt>
      <trkpt lat="59.5464716" lon="17.4725408">
        <ele>38.6</ele>
        <time>2011-01-30T14:38:39Z</time>
      </trkpt>
      <trkpt lat="59.5465783" lon="17.4725367">
        <ele>37.8</ele>
        <time>2011-01-30T14:38:42Z</time>
      </trkpt>
      <trkpt lat="59.5466199" lon="17.4725411">
        <ele>36.6</ele>
        <time>2011-01-30T14:38:43Z</time>
      </trkpt>
      <trkpt lat="59.5467784" lon="17.4725482">
        <ele>33.6</ele>
        <time>2011-01-30T14:38:46Z</time>
      </trkpt>
      <trkpt lat="59.5468304" lon="17.4725574">
        <ele>32.6</ele>
        <time>2011-01-30T14:38:47Z</time>
      </trkpt>
      <trkpt lat="59.5469822" lon="17.4725673">
        <ele>31.4</ele>
        <time>2011-01-30T14:38:50Z</time>
      </trkpt>
      <trkpt lat="59.5470313" lon="17.4725828">
        <ele>31.8</ele>
        <time>2011-01-30T14:38:51Z</time>
      </trkpt>
      <trkpt lat="59.5471974" lon="17.4726512">
        <ele>28.8</ele>
        <time>2011-01-30T14:38:55Z</time>
      </trkpt>
      <trkpt lat="59.547265" lon="17.4727199">
        <ele>26.2</ele>
        <time>2011-01-30T14:38:57Z</time>
      </trkpt>
      <trkpt lat="59.5473002" lon="17.4727537">
        <ele>25</ele>
        <time>2011-01-30T14:38:58Z</time>
      </trkpt>
      <trkpt lat="59.5473881" lon="17.4727326">
        <ele>27.8</ele>
        <time>2011-01-30T14:39:00Z</time>
      </trkpt>
      <trkpt lat="59.5474196" lon="17.4727585">
        <ele>27.8</ele>
        <time>2011-01-30T14:39:01Z</time>
      </trkpt>
      <trkpt lat="59.5475601" lon="17.4728754">
        <ele>28.8</ele>
        <time>2011-01-30T14:39:05Z</time>
      </trkpt>
      <trkpt lat="59.5476752" lon="17.4732022">
        <ele>28.4</ele>
        <time>2011-01-30T14:39:09Z</time>
      </trkpt>
      <trkpt lat="59.5476915" lon="17.4732869">
        <ele>28.4</ele>
        <time>2011-01-30T14:39:10Z</time>
      </trkpt>
      <trkpt lat="59.5477219" lon="17.4735131">
        <ele>28</ele>
        <time>2011-01-30T14:39:13Z</time>
      </trkpt>
      <trkpt lat="59.5477392" lon="17.4735841">
        <ele>28.6</ele>
        <time>2011-01-30T14:39:14Z</time>
      </trkpt>
      <trkpt lat="59.547761" lon="17.4736376">
        <ele>28.2</ele>
        <time>2011-01-30T14:39:15Z</time>
      </trkpt>
      <trkpt lat="59.5478" lon="17.4739074">
        <ele>30.4</ele>
        <time>2011-01-30T14:39:19Z</time>
      </trkpt>
      <trkpt lat="59.5477983" lon="17.4739786">
        <ele>31</ele>
        <time>2011-01-30T14:39:20Z</time>
      </trkpt>
      <trkpt lat="59.5477711" lon="17.474274">
        <ele>33.4</ele>
        <time>2011-01-30T14:39:25Z</time>
      </trkpt>
      <trkpt lat="59.5476594" lon="17.4745762">
        <ele>34.8</ele>
        <time>2011-01-30T14:39:30Z</time>
      </trkpt>
      <trkpt lat="59.5475007" lon="17.4748506">
        <ele>36.8</ele>
        <time>2011-01-30T14:39:35Z</time>
      </trkpt>
      <trkpt lat="59.5473038" lon="17.4749049">
        <ele>38.4</ele>
        <time>2011-01-30T14:39:41Z</time>
      </trkpt>
      <trkpt lat="59.5472271" lon="17.4749356">
        <ele>40</ele>
        <time>2011-01-30T14:39:44Z</time>
      </trkpt>
      <trkpt lat="59.5471447" lon="17.4750506">
        <ele>39.2</ele>
        <time>2011-01-30T14:39:49Z</time>
      </trkpt>
      <trkpt lat="59.5470425" lon="17.4753688">
        <ele>43.4</ele>
        <time>2011-01-30T14:39:55Z</time>
      </trkpt>
      <trkpt lat="59.5469498" lon="17.4756923">
        <ele>44.6</ele>
        <time>2011-01-30T14:40:00Z</time>
      </trkpt>
      <trkpt lat="59.5468653" lon="17.4760302">
        <ele>42.8</ele>
        <time>2011-01-30T14:40:05Z</time>
      </trkpt>
      <trkpt lat="59.5467447" lon="17.4763078">
        <ele>40.4</ele>
        <time>2011-01-30T14:40:10Z</time>
      </trkpt>
      <trkpt lat="59.5467917" lon="17.4766937">
        <ele>38</ele>
        <time>2011-01-30T14:40:14Z</time>
      </trkpt>
      <trkpt lat="59.5468451" lon="17.4770728">
        <ele>35.6</ele>
        <time>2011-01-30T14:40:17Z</time>
      </trkpt>
      <trkpt lat="59.5468163" lon="17.477453">
        <ele>33</ele>
        <time>2011-01-30T14:40:20Z</time>
      </trkpt>
      <trkpt lat="59.5467561" lon="17.4776748">
        <ele>33.2</ele>
        <time>2011-01-30T14:40:22Z</time>
      </trkpt>
      <trkpt lat="59.5467301" lon="17.4777593">
        <ele>32.8</ele>
        <time>2011-01-30T14:40:23Z</time>
      </trkpt>
      <trkpt lat="59.5467063" lon="17.4778297">
        <ele>32.6</ele>
        <time>2011-01-30T14:40:24Z</time>
      </trkpt>
      <trkpt lat="59.5466592" lon="17.4780033">
        <ele>33.2</ele>
        <time>2011-01-30T14:40:27Z</time>
      </trkpt>
      <trkpt lat="59.5466084" lon="17.4781274">
        <ele>34.6</ele>
        <time>2011-01-30T14:40:30Z</time>
      </trkpt>
      <trkpt lat="59.5465857" lon="17.4781489">
        <ele>35.2</ele>
        <time>2011-01-30T14:40:31Z</time>
      </trkpt>
      <trkpt lat="59.546459" lon="17.4783616">
        <ele>38.8</ele>
        <time>2011-01-30T14:40:37Z</time>
      </trkpt>
      <trkpt lat="59.5464164" lon="17.4786904">
        <ele>37.2</ele>
        <time>2011-01-30T14:40:41Z</time>
      </trkpt>
      <trkpt lat="59.5464324" lon="17.4790951">
        <ele>37.8</ele>
        <time>2011-01-30T14:40:46Z</time>
      </trkpt>
      <trkpt lat="59.5464392" lon="17.4792641">
        <ele>36</ele>
        <time>2011-01-30T14:40:48Z</time>
      </trkpt>
      <trkpt lat="59.5464542" lon="17.4794509">
        <ele>35.2</ele>
        <time>2011-01-30T14:40:50Z</time>
      </trkpt>
      <trkpt lat="59.5464557" lon="17.479849">
        <ele>34</ele>
        <time>2011-01-30T14:40:54Z</time>
      </trkpt>
      <trkpt lat="59.5464469" lon="17.480015">
        <ele>34.6</ele>
        <time>2011-01-30T14:40:56Z</time>
      </trkpt>
      <trkpt lat="59.5464398" lon="17.4802012">
        <ele>33.6</ele>
        <time>2011-01-30T14:40:58Z</time>
      </trkpt>
      <trkpt lat="59.5464942" lon="17.4805797">
        <ele>33.6</ele>
        <time>2011-01-30T14:41:02Z</time>
      </trkpt>
      <trkpt lat="59.5465774" lon="17.4807563">
        <ele>32.8</ele>
        <time>2011-01-30T14:41:05Z</time>
      </trkpt>
      <trkpt lat="59.5466094" lon="17.4808063">
        <ele>32.2</ele>
        <time>2011-01-30T14:41:06Z</time>
      </trkpt>
      <trkpt lat="59.5466443" lon="17.4808522">
        <ele>32</ele>
        <time>2011-01-30T14:41:07Z</time>
      </trkpt>
      <trkpt lat="59.5466881" lon="17.4808958">
        <ele>32.6</ele>
        <time>2011-01-30T14:41:08Z</time>
      </trkpt>
      <trkpt lat="59.5468273" lon="17.4809806">
        <ele>35.2</ele>
        <time>2011-01-30T14:41:11Z</time>
      </trkpt>
      <trkpt lat="59.5469494" lon="17.4809756">
        <ele>37.2</ele>
        <time>2011-01-30T14:41:15Z</time>
      </trkpt>
      <trkpt lat="59.5470332" lon="17.4809866">
        <ele>37</ele>
        <time>2011-01-30T14:41:18Z</time>
      </trkpt>
      <trkpt lat="59.5471288" lon="17.4809288">
        <ele>37.2</ele>
        <time>2011-01-30T14:41:22Z</time>
      </trkpt>
      <trkpt lat="59.547208" lon="17.4807868">
        <ele>39.2</ele>
        <time>2011-01-30T14:41:25Z</time>
      </trkpt>
      <trkpt lat="59.5473384" lon="17.4805056">
        <ele>38.8</ele>
        <time>2011-01-30T14:41:29Z</time>
      </trkpt>
      <trkpt lat="59.5474317" lon="17.480254">
        <ele>37.4</ele>
        <time>2011-01-30T14:41:32Z</time>
      </trkpt>
      <trkpt lat="59.547466" lon="17.4801648">
        <ele>37.2</ele>
        <time>2011-01-30T14:41:33Z</time>
      </trkpt>
      <trkpt lat="59.5475767" lon="17.4798888">
        <ele>35</ele>
        <time>2011-01-30T14:41:36Z</time>
      </trkpt>
      <trkpt lat="59.547643" lon="17.4796793">
        <ele>33.8</ele>
        <time>2011-01-30T14:41:38Z</time>
      </trkpt>
      <trkpt lat="59.5476705" lon="17.4795683">
        <ele>32.6</ele>
        <time>2011-01-30T14:41:39Z</time>
      </trkpt>
      <trkpt lat="59.5477823" lon="17.4791961">
        <ele>34.2</ele>
        <time>2011-01-30T14:41:42Z</time>
      </trkpt>
      <trkpt lat="59.5478642" lon="17.4790082">
        <ele>31.8</ele>
        <time>2011-01-30T14:41:44Z</time>
      </trkpt>
      <trkpt lat="59.5479221" lon="17.4789906">
        <ele>29.8</ele>
        <time>2011-01-30T14:41:45Z</time>
      </trkpt>
      <trkpt lat="59.5480901" lon="17.4791341">
        <ele>29.6</ele>
        <time>2011-01-30T14:41:48Z</time>
      </trkpt>
      <trkpt lat="59.5482222" lon="17.4794703">
        <ele>28.2</ele>
        <time>2011-01-30T14:41:52Z</time>
      </trkpt>
      <trkpt lat="59.5482408" lon="17.4795858">
        <ele>27</ele>
        <time>2011-01-30T14:41:53Z</time>
      </trkpt>
      <trkpt lat="59.5482512" lon="17.4798557">
        <ele>25.2</ele>
        <time>2011-01-30T14:41:55Z</time>
      </trkpt>
      <trkpt lat="59.548219" lon="17.480115">
        <ele>24.4</ele>
        <time>2011-01-30T14:41:57Z</time>
      </trkpt>
      <trkpt lat="59.5481857" lon="17.4802474">
        <ele>24.6</ele>
        <time>2011-01-30T14:41:58Z</time>
      </trkpt>
      <trkpt lat="59.5481605" lon="17.4803395">
        <ele>24.6</ele>
        <time>2011-01-30T14:41:59Z</time>
      </trkpt>
      <trkpt lat="59.5480919" lon="17.4805807">
        <ele>26.2</ele>
        <time>2011-01-30T14:42:02Z</time>
      </trkpt>
      <trkpt lat="59.5480713" lon="17.4806658">
        <ele>25.8</ele>
        <time>2011-01-30T14:42:03Z</time>
      </trkpt>
      <trkpt lat="59.5480186" lon="17.4809158">
        <ele>28.4</ele>
        <time>2011-01-30T14:42:06Z</time>
      </trkpt>
      <trkpt lat="59.5480008" lon="17.4811502">
        <ele>31.4</ele>
        <time>2011-01-30T14:42:09Z</time>
      </trkpt>
      <trkpt lat="59.5479974" lon="17.4813253">
        <ele>31.6</ele>
        <time>2011-01-30T14:42:11Z</time>
      </trkpt>
      <trkpt lat="59.5479589" lon="17.4817226">
        <ele>33.2</ele>
        <time>2011-01-30T14:42:15Z</time>
      </trkpt>
      <trkpt lat="59.547934" lon="17.4819492">
        <ele>33</ele>
        <time>2011-01-30T14:42:17Z</time>
      </trkpt>
      <trkpt lat="59.5479158" lon="17.4821487">
        <ele>33.8</ele>
        <time>2011-01-30T14:42:19Z</time>
      </trkpt>
      <trkpt lat="59.5478855" lon="17.4823098">
        <ele>33.2</ele>
        <time>2011-01-30T14:42:21Z</time>
      </trkpt>
      <trkpt lat="59.5478084" lon="17.482503">
        <ele>32</ele>
        <time>2011-01-30T14:42:24Z</time>
      </trkpt>
      <trkpt lat="59.5477792" lon="17.482552">
        <ele>31.8</ele>
        <time>2011-01-30T14:42:25Z</time>
      </trkpt>
      <trkpt lat="59.5476325" lon="17.4827171">
        <ele>29.2</ele>
        <time>2011-01-30T14:42:29Z</time>
      </trkpt>
      <trkpt lat="59.5475891" lon="17.4827828">
        <ele>28.6</ele>
        <time>2011-01-30T14:42:30Z</time>
      </trkpt>
      <trkpt lat="59.5474771" lon="17.4829367">
        <ele>28.6</ele>
        <time>2011-01-30T14:42:32Z</time>
      </trkpt>
      <trkpt lat="59.547369" lon="17.4830938">
        <ele>28</ele>
        <time>2011-01-30T14:42:34Z</time>
      </trkpt>
      <trkpt lat="59.5473276" lon="17.4831736">
        <ele>27.4</ele>
        <time>2011-01-30T14:42:35Z</time>
      </trkpt>
      <trkpt lat="59.5472374" lon="17.4835485">
        <ele>27.2</ele>
        <time>2011-01-30T14:42:39Z</time>
      </trkpt>
      <trkpt lat="59.5472987" lon="17.4839337">
        <ele>28.2</ele>
        <time>2011-01-30T14:42:43Z</time>
      </trkpt>
      <trkpt lat="59.5473142" lon="17.4840241">
        <ele>26.8</ele>
        <time>2011-01-30T14:42:44Z</time>
      </trkpt>
      <trkpt lat="59.5473394" lon="17.4841085">
        <ele>27.8</ele>
        <time>2011-01-30T14:42:45Z</time>
      </trkpt>
      <trkpt lat="59.547388" lon="17.4842591">
        <ele>29.6</ele>
        <time>2011-01-30T14:42:47Z</time>
      </trkpt>
      <trkpt lat="59.5474579" lon="17.4845923">
        <ele>31.2</ele>
        <time>2011-01-30T14:42:51Z</time>
      </trkpt>
      <trkpt lat="59.5475074" lon="17.4848596">
        <ele>32.4</ele>
        <time>2011-01-30T14:42:54Z</time>
      </trkpt>
      <trkpt lat="59.547526" lon="17.4849357">
        <ele>32.8</ele>
        <time>2011-01-30T14:42:55Z</time>
      </trkpt>
      <trkpt lat="59.547563" lon="17.485084">
        <ele>32.2</ele>
        <time>2011-01-30T14:42:57Z</time>
      </trkpt>
      <trkpt lat="59.5476157" lon="17.4852372">
        <ele>31.4</ele>
        <time>2011-01-30T14:42:59Z</time>
      </trkpt>
      <trkpt lat="59.5476783" lon="17.4853492">
        <ele>31</ele>
        <time>2011-01-30T14:43:01Z</time>
      </trkpt>
      <trkpt lat="59.547747" lon="17.4854094">
        <ele>31</ele>
        <time>2011-01-30T14:43:03Z</time>
      </trkpt>
      <trkpt lat="59.5477912" lon="17.4854098">
        <ele>30</ele>
        <time>2011-01-30T14:43:04Z</time>
      </trkpt>
      <trkpt lat="59.5479419" lon="17.4853805">
        <ele>29.8</ele>
        <time>2011-01-30T14:43:07Z</time>
      </trkpt>
      <trkpt lat="59.5479869" lon="17.4853719">
        <ele>29.2</ele>
        <time>2011-01-30T14:43:08Z</time>
      </trkpt>
      <trkpt lat="59.5480311" lon="17.4853656">
        <ele>28.8</ele>
        <time>2011-01-30T14:43:09Z</time>
      </trkpt>
      <trkpt lat="59.5481841" lon="17.4853951">
        <ele>26.2</ele>
        <time>2011-01-30T14:43:13Z</time>
      </trkpt>
      <trkpt lat="59.5482214" lon="17.4854319">
        <ele>25.6</ele>
        <time>2011-01-30T14:43:14Z</time>
      </trkpt>
      <trkpt lat="59.5483454" lon="17.4856129">
        <ele>23.4</ele>
        <time>2011-01-30T14:43:17Z</time>
      </trkpt>
      <trkpt lat="59.5483797" lon="17.4856847">
        <ele>24.6</ele>
        <time>2011-01-30T14:43:18Z</time>
      </trkpt>
      <trkpt lat="59.5484453" lon="17.4858427">
        <ele>26</ele>
        <time>2011-01-30T14:43:20Z</time>
      </trkpt>
      <trkpt lat="59.5484739" lon="17.4859266">
        <ele>26.2</ele>
        <time>2011-01-30T14:43:21Z</time>
      </trkpt>
      <trkpt lat="59.5485491" lon="17.4861681">
        <ele>26.6</ele>
        <time>2011-01-30T14:43:24Z</time>
      </trkpt>
      <trkpt lat="59.5485748" lon="17.4862527">
        <ele>28.2</ele>
        <time>2011-01-30T14:43:25Z</time>
      </trkpt>
      <trkpt lat="59.5486268" lon="17.4864251">
        <ele>30.8</ele>
        <time>2011-01-30T14:43:27Z</time>
      </trkpt>
      <trkpt lat="59.5486664" lon="17.4866084">
        <ele>31.6</ele>
        <time>2011-01-30T14:43:29Z</time>
      </trkpt>
      <trkpt lat="59.5487152" lon="17.4867743">
        <ele>32</ele>
        <time>2011-01-30T14:43:31Z</time>
      </trkpt>
      <trkpt lat="59.5487738" lon="17.4869467">
        <ele>31.8</ele>
        <time>2011-01-30T14:43:33Z</time>
      </trkpt>
      <trkpt lat="59.5489467" lon="17.48725">
        <ele>30.8</ele>
        <time>2011-01-30T14:43:37Z</time>
      </trkpt>
      <trkpt lat="59.5490598" lon="17.4875353">
        <ele>29.2</ele>
        <time>2011-01-30T14:43:40Z</time>
      </trkpt>
      <trkpt lat="59.5490769" lon="17.4877776">
        <ele>29.6</ele>
        <time>2011-01-30T14:43:42Z</time>
      </trkpt>
      <trkpt lat="59.549085" lon="17.4878877">
        <ele>29.2</ele>
        <time>2011-01-30T14:43:43Z</time>
      </trkpt>
      <trkpt lat="59.5490949" lon="17.4880069">
        <ele>30.2</ele>
        <time>2011-01-30T14:43:44Z</time>
      </trkpt>
      <trkpt lat="59.5490876" lon="17.4882335">
        <ele>32</ele>
        <time>2011-01-30T14:43:46Z</time>
      </trkpt>
      <trkpt lat="59.5490866" lon="17.4884306">
        <ele>33.6</ele>
        <time>2011-01-30T14:43:48Z</time>
      </trkpt>
      <trkpt lat="59.5490979" lon="17.4887415">
        <ele>35.6</ele>
        <time>2011-01-30T14:43:51Z</time>
      </trkpt>
      <trkpt lat="59.5491085" lon="17.4888287">
        <ele>36</ele>
        <time>2011-01-30T14:43:52Z</time>
      </trkpt>
      <trkpt lat="59.5491197" lon="17.488898">
        <ele>36.4</ele>
        <time>2011-01-30T14:43:53Z</time>
      </trkpt>
      <trkpt lat="59.5492456" lon="17.4891518">
        <ele>34.8</ele>
        <time>2011-01-30T14:43:57Z</time>
      </trkpt>
      <trkpt lat="59.5493404" lon="17.4892804">
        <ele>34</ele>
        <time>2011-01-30T14:43:59Z</time>
      </trkpt>
      <trkpt lat="59.5493945" lon="17.489353">
        <ele>33.2</ele>
        <time>2011-01-30T14:44:00Z</time>
      </trkpt>
      <trkpt lat="59.549538" lon="17.4895751">
        <ele>30.6</ele>
        <time>2011-01-30T14:44:03Z</time>
      </trkpt>
      <trkpt lat="59.5496694" lon="17.4898442">
        <ele>28</ele>
        <time>2011-01-30T14:44:06Z</time>
      </trkpt>
      <trkpt lat="59.5497223" lon="17.4900509">
        <ele>26.2</ele>
        <time>2011-01-30T14:44:08Z</time>
      </trkpt>
      <trkpt lat="59.5497322" lon="17.4902496">
        <ele>25</ele>
        <time>2011-01-30T14:44:10Z</time>
      </trkpt>
      <trkpt lat="59.5496628" lon="17.490582">
        <ele>24.2</ele>
        <time>2011-01-30T14:44:14Z</time>
      </trkpt>
      <trkpt lat="59.549632" lon="17.4907494">
        <ele>25.6</ele>
        <time>2011-01-30T14:44:16Z</time>
      </trkpt>
      <trkpt lat="59.5495897" lon="17.4909131">
        <ele>25.4</ele>
        <time>2011-01-30T14:44:18Z</time>
      </trkpt>
      <trkpt lat="59.5495596" lon="17.490986">
        <ele>26.6</ele>
        <time>2011-01-30T14:44:19Z</time>
      </trkpt>
      <trkpt lat="59.5494701" lon="17.491208">
        <ele>27.2</ele>
        <time>2011-01-30T14:44:22Z</time>
      </trkpt>
      <trkpt lat="59.5494421" lon="17.491299">
        <ele>26</ele>
        <time>2011-01-30T14:44:23Z</time>
      </trkpt>
      <trkpt lat="59.5493474" lon="17.491558">
        <ele>28</ele>
        <time>2011-01-30T14:44:26Z</time>
      </trkpt>
      <trkpt lat="59.5492276" lon="17.4918931">
        <ele>27.6</ele>
        <time>2011-01-30T14:44:30Z</time>
      </trkpt>
      <trkpt lat="59.5492013" lon="17.4919665">
        <ele>27.4</ele>
        <time>2011-01-30T14:44:31Z</time>
      </trkpt>
      <trkpt lat="59.5491069" lon="17.4921915">
        <ele>27.8</ele>
        <time>2011-01-30T14:44:34Z</time>
      </trkpt>
      <trkpt lat="59.5489831" lon="17.4924723">
        <ele>27.2</ele>
        <time>2011-01-30T14:44:38Z</time>
      </trkpt>
      <trkpt lat="59.548884" lon="17.4926174">
        <ele>26.4</ele>
        <time>2011-01-30T14:44:41Z</time>
      </trkpt>
      <trkpt lat="59.5488175" lon="17.4926888">
        <ele>25.6</ele>
        <time>2011-01-30T14:44:43Z</time>
      </trkpt>
      <trkpt lat="59.5487148" lon="17.4928029">
        <ele>22.6</ele>
        <time>2011-01-30T14:44:46Z</time>
      </trkpt>
      <trkpt lat="59.5486298" lon="17.4928803">
        <ele>22.4</ele>
        <time>2011-01-30T14:44:48Z</time>
      </trkpt>
      <trkpt lat="59.5484583" lon="17.4930246">
        <ele>25</ele>
        <time>2011-01-30T14:44:52Z</time>
      </trkpt>
      <trkpt lat="59.5482746" lon="17.4931658">
        <ele>24.2</ele>
        <time>2011-01-30T14:44:56Z</time>
      </trkpt>
      <trkpt lat="59.5480982" lon="17.4933149">
        <ele>25</ele>
        <time>2011-01-30T14:45:00Z</time>
      </trkpt>
      <trkpt lat="59.5480168" lon="17.4933624">
        <ele>25.6</ele>
        <time>2011-01-30T14:45:02Z</time>
      </trkpt>
      <trkpt lat="59.547902" lon="17.4934094">
        <ele>24.6</ele>
        <time>2011-01-30T14:45:05Z</time>
      </trkpt>
      <trkpt lat="59.5478594" lon="17.493431">
        <ele>24.6</ele>
        <time>2011-01-30T14:45:06Z</time>
      </trkpt>
      <trkpt lat="59.547787" lon="17.493469">
        <ele>23.8</ele>
        <time>2011-01-30T14:45:08Z</time>
      </trkpt>
      <trkpt lat="59.5477154" lon="17.4934975">
        <ele>22</ele>
        <time>2011-01-30T14:45:10Z</time>
      </trkpt>
      <trkpt lat="59.5475889" lon="17.4935683">
        <ele>21.8</ele>
        <time>2011-01-30T14:45:13Z</time>
      </trkpt>
      <trkpt lat="59.5475057" lon="17.4935903">
        <ele>20.4</ele>
        <time>2011-01-30T14:45:15Z</time>
      </trkpt>
      <trkpt lat="59.5473318" lon="17.4936258">
        <ele>21.2</ele>
        <time>2011-01-30T14:45:19Z</time>
      </trkpt>
      <trkpt lat="59.5472913" lon="17.4936212">
        <ele>21.8</ele>
        <time>2011-01-30T14:45:20Z</time>
      </trkpt>
      <trkpt lat="59.5470953" lon="17.4935366">
        <ele>26.2</ele>
        <time>2011-01-30T14:45:26Z</time>
      </trkpt>
      <trkpt lat="59.5469231" lon="17.4933446">
        <ele>30.4</ele>
        <time>2011-01-30T14:45:33Z</time>
      </trkpt>
      <trkpt lat="59.5467494" lon="17.4931519">
        <ele>33</ele>
        <time>2011-01-30T14:45:39Z</time>
      </trkpt>
      <trkpt lat="59.5465954" lon="17.4929095">
        <ele>36</ele>
        <time>2011-01-30T14:45:44Z</time>
      </trkpt>
      <trkpt lat="59.5464785" lon="17.4925721">
        <ele>37.4</ele>
        <time>2011-01-30T14:45:49Z</time>
      </trkpt>
      <trkpt lat="59.5463863" lon="17.4922231">
        <ele>38.2</ele>
        <time>2011-01-30T14:45:55Z</time>
      </trkpt>
      <trkpt lat="59.5463122" lon="17.4919175">
        <ele>39</ele>
        <time>2011-01-30T14:46:00Z</time>
      </trkpt>
      <trkpt lat="59.5462883" lon="17.4918486">
        <ele>39.8</ele>
        <time>2011-01-30T14:46:01Z</time>
      </trkpt>
      <trkpt lat="59.5461763" lon="17.4915221">
        <ele>38</ele>
        <time>2011-01-30T14:46:06Z</time>
      </trkpt>
      <trkpt lat="59.5461048" lon="17.4912085">
        <ele>36.2</ele>
        <time>2011-01-30T14:46:10Z</time>
      </trkpt>
      <trkpt lat="59.5460828" lon="17.4911306">
        <ele>36.6</ele>
        <time>2011-01-30T14:46:11Z</time>
      </trkpt>
      <trkpt lat="59.5459952" lon="17.4909436">
        <ele>37.8</ele>
        <time>2011-01-30T14:46:14Z</time>
      </trkpt>
      <trkpt lat="59.545933" lon="17.4908601">
        <ele>38</ele>
        <time>2011-01-30T14:46:16Z</time>
      </trkpt>
      <trkpt lat="59.5458972" lon="17.4908091">
        <ele>36.8</ele>
        <time>2011-01-30T14:46:17Z</time>
      </trkpt>
      <trkpt lat="59.545821" lon="17.4907058">
        <ele>35.6</ele>
        <time>2011-01-30T14:46:19Z</time>
      </trkpt>
      <trkpt lat="59.5457751" lon="17.4906727">
        <ele>35.2</ele>
        <time>2011-01-30T14:46:20Z</time>
      </trkpt>
      <trkpt lat="59.5456197" lon="17.490591">
        <ele>35</ele>
        <time>2011-01-30T14:46:23Z</time>
      </trkpt>
      <trkpt lat="59.5455737" lon="17.4905617">
        <ele>35.6</ele>
        <time>2011-01-30T14:46:24Z</time>
      </trkpt>
      <trkpt lat="59.5454238" lon="17.4904287">
        <ele>35.6</ele>
        <time>2011-01-30T14:46:27Z</time>
      </trkpt>
      <trkpt lat="59.5453695" lon="17.4903748">
        <ele>36</ele>
        <time>2011-01-30T14:46:28Z</time>
      </trkpt>
      <trkpt lat="59.5452721" lon="17.4901235">
        <ele>37.8</ele>
        <time>2011-01-30T14:46:32Z</time>
      </trkpt>
      <trkpt lat="59.5452602" lon="17.4900537">
        <ele>37.2</ele>
        <time>2011-01-30T14:46:33Z</time>
      </trkpt>
      <trkpt lat="59.5452875" lon="17.4896573">
        <ele>35.4</ele>
        <time>2011-01-30T14:46:38Z</time>
      </trkpt>
      <trkpt lat="59.545309" lon="17.4895735">
        <ele>35.6</ele>
        <time>2011-01-30T14:46:39Z</time>
      </trkpt>
      <trkpt lat="59.5453939" lon="17.4893032">
        <ele>36.4</ele>
        <time>2011-01-30T14:46:43Z</time>
      </trkpt>
      <trkpt lat="59.5455055" lon="17.489189">
        <ele>34.2</ele>
        <time>2011-01-30T14:46:47Z</time>
      </trkpt>
      <trkpt lat="59.5455589" lon="17.4891805">
        <ele>33.4</ele>
        <time>2011-01-30T14:46:49Z</time>
      </trkpt>
      <trkpt lat="59.5457636" lon="17.4892273">
        <ele>33.8</ele>
        <time>2011-01-30T14:46:53Z</time>
      </trkpt>
      <trkpt lat="59.5459096" lon="17.4893503">
        <ele>32</ele>
        <time>2011-01-30T14:46:56Z</time>
      </trkpt>
      <trkpt lat="59.5459624" lon="17.4893446">
        <ele>32.4</ele>
        <time>2011-01-30T14:46:57Z</time>
      </trkpt>
      <trkpt lat="59.5460983" lon="17.4892337">
        <ele>36.2</ele>
        <time>2011-01-30T14:47:00Z</time>
      </trkpt>
      <trkpt lat="59.5461323" lon="17.4891813">
        <ele>36.8</ele>
        <time>2011-01-30T14:47:01Z</time>
      </trkpt>
      <trkpt lat="59.5463097" lon="17.488966">
        <ele>39.6</ele>
        <time>2011-01-30T14:47:06Z</time>
      </trkpt>
      <trkpt lat="59.5464863" lon="17.4888201">
        <ele>39.6</ele>
        <time>2011-01-30T14:47:10Z</time>
      </trkpt>
      <trkpt lat="59.546663" lon="17.4889163">
        <ele>39.4</ele>
        <time>2011-01-30T14:47:14Z</time>
      </trkpt>
      <trkpt lat="59.5467344" lon="17.488971">
        <ele>38.4</ele>
        <time>2011-01-30T14:47:16Z</time>
      </trkpt>
      <trkpt lat="59.5468416" lon="17.4889632">
        <ele>39.6</ele>
        <time>2011-01-30T14:47:20Z</time>
      </trkpt>
      <trkpt lat="59.5468591" lon="17.4889478">
        <ele>40</ele>
        <time>2011-01-30T14:47:21Z</time>
      </trkpt>
      <trkpt lat="59.5470638" lon="17.4889313">
        <ele>38.8</ele>
        <time>2011-01-30T14:47:29Z</time>
      </trkpt>
      <trkpt lat="59.5472559" lon="17.4890104">
        <ele>34.4</ele>
        <time>2011-01-30T14:47:33Z</time>
      </trkpt>
      <trkpt lat="59.5474719" lon="17.4891028">
        <ele>38</ele>
        <time>2011-01-30T14:47:37Z</time>
      </trkpt>
      <trkpt lat="59.5475154" lon="17.4891159">
        <ele>38.4</ele>
        <time>2011-01-30T14:47:38Z</time>
      </trkpt>
      <trkpt lat="59.5476641" lon="17.4890449">
        <ele>41.4</ele>
        <time>2011-01-30T14:47:42Z</time>
      </trkpt>
      <trkpt lat="59.5477005" lon="17.4889938">
        <ele>42.4</ele>
        <time>2011-01-30T14:47:43Z</time>
      </trkpt>
      <trkpt lat="59.5477326" lon="17.4889347">
        <ele>43</ele>
        <time>2011-01-30T14:47:44Z</time>
      </trkpt>
      <trkpt lat="59.5477759" lon="17.4887784">
        <ele>43</ele>
        <time>2011-01-30T14:47:46Z</time>
      </trkpt>
      <trkpt lat="59.5478694" lon="17.4884463">
        <ele>43.6</ele>
        <time>2011-01-30T14:47:50Z</time>
      </trkpt>
      <trkpt lat="59.5479" lon="17.4883763">
        <ele>44.2</ele>
        <time>2011-01-30T14:47:51Z</time>
      </trkpt>
      <trkpt lat="59.5480476" lon="17.4882436">
        <ele>41</ele>
        <time>2011-01-30T14:47:55Z</time>
      </trkpt>
      <trkpt lat="59.5481955" lon="17.4880942">
        <ele>41.4</ele>
        <time>2011-01-30T14:47:59Z</time>
      </trkpt>
      <trkpt lat="59.548232" lon="17.4880463">
        <ele>41.4</ele>
        <time>2011-01-30T14:48:00Z</time>
      </trkpt>
      <trkpt lat="59.5482668" lon="17.4879923">
        <ele>41</ele>
        <time>2011-01-30T14:48:01Z</time>
      </trkpt>
      <trkpt lat="59.5484093" lon="17.4878048">
        <ele>36.8</ele>
        <time>2011-01-30T14:48:05Z</time>
      </trkpt>
      <trkpt lat="59.5485661" lon="17.4874729">
        <ele>34.4</ele>
        <time>2011-01-30T14:48:09Z</time>
      </trkpt>
      <trkpt lat="59.5486148" lon="17.4873268">
        <ele>34.8</ele>
        <time>2011-01-30T14:48:10Z</time>
      </trkpt>
      <trkpt lat="59.5486573" lon="17.4870981">
        <ele>34.8</ele>
        <time>2011-01-30T14:48:12Z</time>
      </trkpt>
      <trkpt lat="59.5486533" lon="17.4866994">
        <ele>35.2</ele>
        <time>2011-01-30T14:48:15Z</time>
      </trkpt>
      <trkpt lat="59.5486361" lon="17.4865858">
        <ele>34</ele>
        <time>2011-01-30T14:48:16Z</time>
      </trkpt>
      <trkpt lat="59.548576" lon="17.4862614">
        <ele>31.6</ele>
        <time>2011-01-30T14:48:19Z</time>
      </trkpt>
      <trkpt lat="59.5484641" lon="17.4860077">
        <ele>29.4</ele>
        <time>2011-01-30T14:48:22Z</time>
      </trkpt>
      <trkpt lat="59.5484354" lon="17.4859019">
        <ele>28.8</ele>
        <time>2011-01-30T14:48:23Z</time>
      </trkpt>
      <trkpt lat="59.5483698" lon="17.4856516">
        <ele>29</ele>
        <time>2011-01-30T14:48:26Z</time>
      </trkpt>
      <trkpt lat="59.5483404" lon="17.4856051">
        <ele>29</ele>
        <time>2011-01-30T14:48:27Z</time>
      </trkpt>
      <trkpt lat="59.5483107" lon="17.485547">
        <ele>28.8</ele>
        <time>2011-01-30T14:48:28Z</time>
      </trkpt>
      <trkpt lat="59.5481853" lon="17.4854194">
        <ele>28.6</ele>
        <time>2011-01-30T14:48:31Z</time>
      </trkpt>
      <trkpt lat="59.5481429" lon="17.4853948">
        <ele>27.8</ele>
        <time>2011-01-30T14:48:32Z</time>
      </trkpt>
      <trkpt lat="59.5479611" lon="17.4853248">
        <ele>29.6</ele>
        <time>2011-01-30T14:48:37Z</time>
      </trkpt>
      <trkpt lat="59.5478673" lon="17.4853455">
        <ele>30.4</ele>
        <time>2011-01-30T14:48:39Z</time>
      </trkpt>
      <trkpt lat="59.5478191" lon="17.4853611">
        <ele>31</ele>
        <time>2011-01-30T14:48:40Z</time>
      </trkpt>
      <trkpt lat="59.5477741" lon="17.48538">
        <ele>31.4</ele>
        <time>2011-01-30T14:48:41Z</time>
      </trkpt>
      <trkpt lat="59.5477407" lon="17.4853857">
        <ele>32.2</ele>
        <time>2011-01-30T14:48:42Z</time>
      </trkpt>
      <trkpt lat="59.5475736" lon="17.4853341">
        <ele>33.4</ele>
        <time>2011-01-30T14:48:47Z</time>
      </trkpt>
      <trkpt lat="59.5473887" lon="17.4853807">
        <ele>34.6</ele>
        <time>2011-01-30T14:48:53Z</time>
      </trkpt>
      <trkpt lat="59.5472144" lon="17.4855723">
        <ele>37.4</ele>
        <time>2011-01-30T14:49:00Z</time>
      </trkpt>
      <trkpt lat="59.5470484" lon="17.485776">
        <ele>38.8</ele>
        <time>2011-01-30T14:49:05Z</time>
      </trkpt>
      <trkpt lat="59.5468874" lon="17.4860147">
        <ele>38.8</ele>
        <time>2011-01-30T14:49:11Z</time>
      </trkpt>
      <trkpt lat="59.5466924" lon="17.4862671">
        <ele>38.6</ele>
        <time>2011-01-30T14:49:17Z</time>
      </trkpt>
      <trkpt lat="59.5465498" lon="17.4864644">
        <ele>38.4</ele>
        <time>2011-01-30T14:49:20Z</time>
      </trkpt>
      <trkpt lat="59.5464002" lon="17.4865867">
        <ele>36</ele>
        <time>2011-01-30T14:49:23Z</time>
      </trkpt>
      <trkpt lat="59.5463444" lon="17.4865999">
        <ele>35.2</ele>
        <time>2011-01-30T14:49:24Z</time>
      </trkpt>
      <trkpt lat="59.5461506" lon="17.4865711">
        <ele>34.8</ele>
        <time>2011-01-30T14:49:27Z</time>
      </trkpt>
      <trkpt lat="59.5459156" lon="17.4865395">
        <ele>35</ele>
        <time>2011-01-30T14:49:31Z</time>
      </trkpt>
      <trkpt lat="59.5458564" lon="17.4865116">
        <ele>34.2</ele>
        <time>2011-01-30T14:49:32Z</time>
      </trkpt>
      <trkpt lat="59.5456994" lon="17.4863768">
        <ele>33.6</ele>
        <time>2011-01-30T14:49:35Z</time>
      </trkpt>
      <trkpt lat="59.5455548" lon="17.486095">
        <ele>32.8</ele>
        <time>2011-01-30T14:49:38Z</time>
      </trkpt>
      <trkpt lat="59.545501" lon="17.4859195">
        <ele>32.2</ele>
        <time>2011-01-30T14:49:40Z</time>
      </trkpt>
      <trkpt lat="59.5454586" lon="17.4857408">
        <ele>30.6</ele>
        <time>2011-01-30T14:49:42Z</time>
      </trkpt>
      <trkpt lat="59.5453984" lon="17.4853067">
        <ele>28</ele>
        <time>2011-01-30T14:49:46Z</time>
      </trkpt>
      <trkpt lat="59.5453517" lon="17.4849125">
        <ele>25.4</ele>
        <time>2011-01-30T14:49:49Z</time>
      </trkpt>
      <trkpt lat="59.5453209" lon="17.4846747">
        <ele>24.4</ele>
        <time>2011-01-30T14:49:51Z</time>
      </trkpt>
      <trkpt lat="59.5453315" lon="17.4844695">
        <ele>24.6</ele>
        <time>2011-01-30T14:49:53Z</time>
      </trkpt>
      <trkpt lat="59.5455006" lon="17.4842048">
        <ele>27.8</ele>
        <time>2011-01-30T14:49:58Z</time>
      </trkpt>
      <trkpt lat="59.5456721" lon="17.483976">
        <ele>29.2</ele>
        <time>2011-01-30T14:50:03Z</time>
      </trkpt>
      <trkpt lat="59.5457378" lon="17.4838847">
        <ele>29</ele>
        <time>2011-01-30T14:50:05Z</time>
      </trkpt>
      <trkpt lat="59.5457754" lon="17.4838454">
        <ele>29.8</ele>
        <time>2011-01-30T14:50:06Z</time>
      </trkpt>
      <trkpt lat="59.5458578" lon="17.4838227">
        <ele>30.8</ele>
        <time>2011-01-30T14:50:08Z</time>
      </trkpt>
      <trkpt lat="59.5459419" lon="17.4838529">
        <ele>30.8</ele>
        <time>2011-01-30T14:50:10Z</time>
      </trkpt>
      <trkpt lat="59.5459775" lon="17.4838961">
        <ele>31.6</ele>
        <time>2011-01-30T14:50:11Z</time>
      </trkpt>
      <trkpt lat="59.5460474" lon="17.4839956">
        <ele>32.4</ele>
        <time>2011-01-30T14:50:13Z</time>
      </trkpt>
      <trkpt lat="59.5460827" lon="17.4842593">
        <ele>34.6</ele>
        <time>2011-01-30T14:50:16Z</time>
      </trkpt>
      <trkpt lat="59.5461054" lon="17.4844047">
        <ele>35</ele>
        <time>2011-01-30T14:50:18Z</time>
      </trkpt>
      <trkpt lat="59.5461147" lon="17.48447">
        <ele>35.4</ele>
        <time>2011-01-30T14:50:19Z</time>
      </trkpt>
      <trkpt lat="59.5461247" lon="17.4846197">
        <ele>36</ele>
        <time>2011-01-30T14:50:21Z</time>
      </trkpt>
      <trkpt lat="59.5461299" lon="17.4848047">
        <ele>37.4</ele>
        <time>2011-01-30T14:50:24Z</time>
      </trkpt>
      <trkpt lat="59.5461613" lon="17.4849566">
        <ele>37.6</ele>
        <time>2011-01-30T14:50:27Z</time>
      </trkpt>
      <trkpt lat="59.5462184" lon="17.4851307">
        <ele>38.4</ele>
        <time>2011-01-30T14:50:32Z</time>
      </trkpt>
      <trkpt lat="59.5462658" lon="17.4852336">
        <ele>41.4</ele>
        <time>2011-01-30T14:50:36Z</time>
      </trkpt>
      <trkpt lat="59.546308" lon="17.4854264">
        <ele>44.2</ele>
        <time>2011-01-30T14:50:41Z</time>
      </trkpt>
      <trkpt lat="59.5463124" lon="17.4854745">
        <ele>45</ele>
        <time>2011-01-30T14:50:42Z</time>
      </trkpt>
      <trkpt lat="59.5463507" lon="17.4858076">
        <ele>46</ele>
        <time>2011-01-30T14:50:47Z</time>
      </trkpt>
      <trkpt lat="59.5464755" lon="17.4860925">
        <ele>46.4</ele>
        <time>2011-01-30T14:50:52Z</time>
      </trkpt>
      <trkpt lat="59.5465811" lon="17.4861723">
        <ele>44.8</ele>
        <time>2011-01-30T14:50:54Z</time>
      </trkpt>
      <trkpt lat="59.5466973" lon="17.4861152">
        <ele>42.6</ele>
        <time>2011-01-30T14:50:56Z</time>
      </trkpt>
      <trkpt lat="59.5468966" lon="17.4858536">
        <ele>41.6</ele>
        <time>2011-01-30T14:51:00Z</time>
      </trkpt>
      <trkpt lat="59.5469493" lon="17.4857905">
        <ele>41.2</ele>
        <time>2011-01-30T14:51:01Z</time>
      </trkpt>
      <trkpt lat="59.5470852" lon="17.4855926">
        <ele>37.2</ele>
        <time>2011-01-30T14:51:04Z</time>
      </trkpt>
      <trkpt lat="59.5471818" lon="17.4854572">
        <ele>36</ele>
        <time>2011-01-30T14:51:06Z</time>
      </trkpt>
      <trkpt lat="59.5472372" lon="17.4853976">
        <ele>35</ele>
        <time>2011-01-30T14:51:07Z</time>
      </trkpt>
      <trkpt lat="59.5473429" lon="17.4852449">
        <ele>33.2</ele>
        <time>2011-01-30T14:51:09Z</time>
      </trkpt>
      <trkpt lat="59.5473913" lon="17.4851487">
        <ele>33.2</ele>
        <time>2011-01-30T14:51:10Z</time>
      </trkpt>
      <trkpt lat="59.5474151" lon="17.4846391">
        <ele>35</ele>
        <time>2011-01-30T14:51:13Z</time>
      </trkpt>
      <trkpt lat="59.5474031" lon="17.4844985">
        <ele>34.4</ele>
        <time>2011-01-30T14:51:14Z</time>
      </trkpt>
      <trkpt lat="59.5473828" lon="17.4842761">
        <ele>33.2</ele>
        <time>2011-01-30T14:51:16Z</time>
      </trkpt>
      <trkpt lat="59.5473442" lon="17.4841915">
        <ele>33.2</ele>
        <time>2011-01-30T14:51:17Z</time>
      </trkpt>
      <trkpt lat="59.5471836" lon="17.4839775">
        <ele>33.4</ele>
        <time>2011-01-30T14:51:21Z</time>
      </trkpt>
      <trkpt lat="59.547023" lon="17.4840401">
        <ele>33.2</ele>
        <time>2011-01-30T14:51:26Z</time>
      </trkpt>
      <trkpt lat="59.5470036" lon="17.4840511">
        <ele>33.2</ele>
        <time>2011-01-30T14:51:27Z</time>
      </trkpt>
      <trkpt lat="59.5468285" lon="17.484194">
        <ele>38</ele>
        <time>2011-01-30T14:51:34Z</time>
      </trkpt>
      <trkpt lat="59.5466251" lon="17.4841395">
        <ele>41.6</ele>
        <time>2011-01-30T14:51:41Z</time>
      </trkpt>
      <trkpt lat="59.5464217" lon="17.4840501">
        <ele>42.4</ele>
        <time>2011-01-30T14:51:45Z</time>
      </trkpt>
      <trkpt lat="59.5463628" lon="17.4839661">
        <ele>41.4</ele>
        <time>2011-01-30T14:51:46Z</time>
      </trkpt>
      <trkpt lat="59.5462331" lon="17.4837545">
        <ele>39.2</ele>
        <time>2011-01-30T14:51:48Z</time>
      </trkpt>
      <trkpt lat="59.5461725" lon="17.4836243">
        <ele>38.8</ele>
        <time>2011-01-30T14:51:49Z</time>
      </trkpt>
      <trkpt lat="59.5460815" lon="17.483361">
        <ele>37.8</ele>
        <time>2011-01-30T14:51:51Z</time>
      </trkpt>
      <trkpt lat="59.5460318" lon="17.482957">
        <ele>38.2</ele>
        <time>2011-01-30T14:51:54Z</time>
      </trkpt>
      <trkpt lat="59.546103" lon="17.4825984">
        <ele>37.8</ele>
        <time>2011-01-30T14:51:58Z</time>
      </trkpt>
      <trkpt lat="59.5461329" lon="17.4824084">
        <ele>37.6</ele>
        <time>2011-01-30T14:52:00Z</time>
      </trkpt>
      <trkpt lat="59.5461525" lon="17.4823171">
        <ele>37.2</ele>
        <time>2011-01-30T14:52:01Z</time>
      </trkpt>
      <trkpt lat="59.5461965" lon="17.4822432">
        <ele>37.6</ele>
        <time>2011-01-30T14:52:02Z</time>
      </trkpt>
      <trkpt lat="59.5463231" lon="17.4821261">
        <ele>35</ele>
        <time>2011-01-30T14:52:05Z</time>
      </trkpt>
      <trkpt lat="59.5463769" lon="17.4821396">
        <ele>35.4</ele>
        <time>2011-01-30T14:52:06Z</time>
      </trkpt>
      <trkpt lat="59.5465149" lon="17.4821691">
        <ele>34.8</ele>
        <time>2011-01-30T14:52:09Z</time>
      </trkpt>
      <trkpt lat="59.5465669" lon="17.482169">
        <ele>35.4</ele>
        <time>2011-01-30T14:52:10Z</time>
      </trkpt>
      <trkpt lat="59.546793" lon="17.4820929">
        <ele>35.2</ele>
        <time>2011-01-30T14:52:15Z</time>
      </trkpt>
      <trkpt lat="59.5469062" lon="17.4820546">
        <ele>33.4</ele>
        <time>2011-01-30T14:52:18Z</time>
      </trkpt>
      <trkpt lat="59.5469704" lon="17.4819858">
        <ele>36.2</ele>
        <time>2011-01-30T14:52:20Z</time>
      </trkpt>
      <trkpt lat="59.547011" lon="17.4819122">
        <ele>38.8</ele>
        <time>2011-01-30T14:52:22Z</time>
      </trkpt>
      <trkpt lat="59.5470676" lon="17.4816677">
        <ele>41.6</ele>
        <time>2011-01-30T14:52:28Z</time>
      </trkpt>
      <trkpt lat="59.5470452" lon="17.4813085">
        <ele>41.6</ele>
        <time>2011-01-30T14:52:33Z</time>
      </trkpt>
      <trkpt lat="59.5469551" lon="17.4809738">
        <ele>39</ele>
        <time>2011-01-30T14:52:37Z</time>
      </trkpt>
      <trkpt lat="59.5468619" lon="17.4808307">
        <ele>36.2</ele>
        <time>2011-01-30T14:52:39Z</time>
      </trkpt>
      <trkpt lat="59.5467954" lon="17.4807757">
        <ele>35</ele>
        <time>2011-01-30T14:52:40Z</time>
      </trkpt>
      <trkpt lat="59.5466082" lon="17.4806263">
        <ele>34.4</ele>
        <time>2011-01-30T14:52:43Z</time>
      </trkpt>
      <trkpt lat="59.5465648" lon="17.4805679">
        <ele>34.4</ele>
        <time>2011-01-30T14:52:44Z</time>
      </trkpt>
      <trkpt lat="59.5464314" lon="17.4803821">
        <ele>36</ele>
        <time>2011-01-30T14:52:47Z</time>
      </trkpt>
      <trkpt lat="59.5463836" lon="17.4802212">
        <ele>36.8</ele>
        <time>2011-01-30T14:52:49Z</time>
      </trkpt>
      <trkpt lat="59.5463631" lon="17.4801561">
        <ele>37.2</ele>
        <time>2011-01-30T14:52:50Z</time>
      </trkpt>
      <trkpt lat="59.5463257" lon="17.4800333">
        <ele>38.4</ele>
        <time>2011-01-30T14:52:52Z</time>
      </trkpt>
      <trkpt lat="59.5462884" lon="17.4798442">
        <ele>38.2</ele>
        <time>2011-01-30T14:52:55Z</time>
      </trkpt>
      <trkpt lat="59.5462725" lon="17.4796675">
        <ele>38.6</ele>
        <time>2011-01-30T14:52:58Z</time>
      </trkpt>
      <trkpt lat="59.5463101" lon="17.4792795">
        <ele>37.8</ele>
        <time>2011-01-30T14:53:04Z</time>
      </trkpt>
      <trkpt lat="59.5463329" lon="17.4792157">
        <ele>38.2</ele>
        <time>2011-01-30T14:53:05Z</time>
      </trkpt>
      <trkpt lat="59.5463779" lon="17.4788878">
        <ele>40.2</ele>
        <time>2011-01-30T14:53:09Z</time>
      </trkpt>
      <trkpt lat="59.5463895" lon="17.4784606">
        <ele>39.8</ele>
        <time>2011-01-30T14:53:14Z</time>
      </trkpt>
      <trkpt lat="59.5464077" lon="17.4782375">
        <ele>40.2</ele>
        <time>2011-01-30T14:53:17Z</time>
      </trkpt>
      <trkpt lat="59.5464759" lon="17.4780909">
        <ele>38.2</ele>
        <time>2011-01-30T14:53:20Z</time>
      </trkpt>
      <trkpt lat="59.5466343" lon="17.4778203">
        <ele>36.2</ele>
        <time>2011-01-30T14:53:24Z</time>
      </trkpt>
      <trkpt lat="59.5466762" lon="17.477724">
        <ele>35.4</ele>
        <time>2011-01-30T14:53:25Z</time>
      </trkpt>
      <trkpt lat="59.5467578" lon="17.477497">
        <ele>35.8</ele>
        <time>2011-01-30T14:53:27Z</time>
      </trkpt>
      <trkpt lat="59.5468026" lon="17.4770972">
        <ele>36.8</ele>
        <time>2011-01-30T14:53:30Z</time>
      </trkpt>
      <trkpt lat="59.5468001" lon="17.4769916">
        <ele>36.4</ele>
        <time>2011-01-30T14:53:31Z</time>
      </trkpt>
      <trkpt lat="59.5467404" lon="17.4767293">
        <ele>37.4</ele>
        <time>2011-01-30T14:53:35Z</time>
      </trkpt>
      <trkpt lat="59.5467202" lon="17.476678">
        <ele>37.4</ele>
        <time>2011-01-30T14:53:36Z</time>
      </trkpt>
      <trkpt lat="59.5467017" lon="17.4766279">
        <ele>38.6</ele>
        <time>2011-01-30T14:53:37Z</time>
      </trkpt>
      <trkpt lat="59.5465749" lon="17.4765258">
        <ele>39.8</ele>
        <time>2011-01-30T14:53:42Z</time>
      </trkpt>
      <trkpt lat="59.5465283" lon="17.476543">
        <ele>39.8</ele>
        <time>2011-01-30T14:53:44Z</time>
      </trkpt>
      <trkpt lat="59.5464318" lon="17.4767169">
        <ele>40.4</ele>
        <time>2011-01-30T14:53:48Z</time>
      </trkpt>
      <trkpt lat="59.5462464" lon="17.4769328">
        <ele>36</ele>
        <time>2011-01-30T14:53:52Z</time>
      </trkpt>
      <trkpt lat="59.546056" lon="17.4770574">
        <ele>35</ele>
        <time>2011-01-30T14:53:55Z</time>
      </trkpt>
      <trkpt lat="59.5458953" lon="17.4772143">
        <ele>35</ele>
        <time>2011-01-30T14:53:58Z</time>
      </trkpt>
      <trkpt lat="59.5458412" lon="17.477249">
        <ele>35.8</ele>
        <time>2011-01-30T14:53:59Z</time>
      </trkpt>
      <trkpt lat="59.5456606" lon="17.477165">
        <ele>35</ele>
        <time>2011-01-30T14:54:02Z</time>
      </trkpt>
      <trkpt lat="59.5455097" lon="17.4769038">
        <ele>34.8</ele>
        <time>2011-01-30T14:54:05Z</time>
      </trkpt>
      <trkpt lat="59.5454682" lon="17.4766844">
        <ele>35.2</ele>
        <time>2011-01-30T14:54:07Z</time>
      </trkpt>
      <trkpt lat="59.5454529" lon="17.47656">
        <ele>34.2</ele>
        <time>2011-01-30T14:54:08Z</time>
      </trkpt>
      <trkpt lat="59.5454177" lon="17.4761587">
        <ele>33.2</ele>
        <time>2011-01-30T14:54:11Z</time>
      </trkpt>
      <trkpt lat="59.5453323" lon="17.475742">
        <ele>30</ele>
        <time>2011-01-30T14:54:16Z</time>
      </trkpt>
      <trkpt lat="59.5453156" lon="17.4756705">
        <ele>29.2</ele>
        <time>2011-01-30T14:54:17Z</time>
      </trkpt>
      <trkpt lat="59.5453328" lon="17.4753747">
        <ele>27.4</ele>
        <time>2011-01-30T14:54:20Z</time>
      </trkpt>
      <trkpt lat="59.5454846" lon="17.4750191">
        <ele>26</ele>
        <time>2011-01-30T14:54:24Z</time>
      </trkpt>
      <trkpt lat="59.54553" lon="17.4749193">
        <ele>26.4</ele>
        <time>2011-01-30T14:54:25Z</time>
      </trkpt>
      <trkpt lat="59.5456008" lon="17.4747406">
        <ele>26</ele>
        <time>2011-01-30T14:54:27Z</time>
      </trkpt>
      <trkpt lat="59.5456364" lon="17.4746787">
        <ele>25</ele>
        <time>2011-01-30T14:54:28Z</time>
      </trkpt>
      <trkpt lat="59.5456818" lon="17.4746252">
        <ele>25</ele>
        <time>2011-01-30T14:54:29Z</time>
      </trkpt>
      <trkpt lat="59.545776" lon="17.4745222">
        <ele>27</ele>
        <time>2011-01-30T14:54:31Z</time>
      </trkpt>
      <trkpt lat="59.5458174" lon="17.4744854">
        <ele>27.2</ele>
        <time>2011-01-30T14:54:32Z</time>
      </trkpt>
      <trkpt lat="59.5459677" lon="17.4742969">
        <ele>29.2</ele>
        <time>2011-01-30T14:54:36Z</time>
      </trkpt>
      <trkpt lat="59.5459963" lon="17.4742435">
        <ele>29.6</ele>
        <time>2011-01-30T14:54:37Z</time>
      </trkpt>
      <trkpt lat="59.5459945" lon="17.4738219">
        <ele>28.4</ele>
        <time>2011-01-30T14:54:42Z</time>
      </trkpt>
      <trkpt lat="59.5459717" lon="17.4736929">
        <ele>28</ele>
        <time>2011-01-30T14:54:43Z</time>
      </trkpt>
      <trkpt lat="59.545957" lon="17.4735556">
        <ele>27.6</ele>
        <time>2011-01-30T14:54:44Z</time>
      </trkpt>
      <trkpt lat="59.5459465" lon="17.4733731">
        <ele>29</ele>
        <time>2011-01-30T14:54:45Z</time>
      </trkpt>
      <trkpt lat="59.5460419" lon="17.4729949">
        <ele>31.4</ele>
        <time>2011-01-30T14:54:48Z</time>
      </trkpt>
      <trkpt lat="59.5462316" lon="17.4728247">
        <ele>31.8</ele>
        <time>2011-01-30T14:54:52Z</time>
      </trkpt>
      <trkpt lat="59.5463231" lon="17.4727533">
        <ele>32</ele>
        <time>2011-01-30T14:54:54Z</time>
      </trkpt>
      <trkpt lat="59.5463875" lon="17.47266">
        <ele>33</ele>
        <time>2011-01-30T14:54:56Z</time>
      </trkpt>
      <trkpt lat="59.5464267" lon="17.4726263">
        <ele>33.8</ele>
        <time>2011-01-30T14:54:57Z</time>
      </trkpt>
      <trkpt lat="59.5464931" lon="17.4725595">
        <ele>32.2</ele>
        <time>2011-01-30T14:54:59Z</time>
      </trkpt>
      <trkpt lat="59.5466112" lon="17.4725691">
        <ele>32.8</ele>
        <time>2011-01-30T14:55:02Z</time>
      </trkpt>
      <trkpt lat="59.5466539" lon="17.4725872">
        <ele>33.2</ele>
        <time>2011-01-30T14:55:03Z</time>
      </trkpt>
      <trkpt lat="59.5467053" lon="17.4725936">
        <ele>33.6</ele>
        <time>2011-01-30T14:55:04Z</time>
      </trkpt>
      <trkpt lat="59.5468355" lon="17.472622">
        <ele>34.2</ele>
        <time>2011-01-30T14:55:06Z</time>
      </trkpt>
      <trkpt lat="59.5469067" lon="17.4726263">
        <ele>34.8</ele>
        <time>2011-01-30T14:55:07Z</time>
      </trkpt>
      <trkpt lat="59.5470193" lon="17.4725971">
        <ele>34.6</ele>
        <time>2011-01-30T14:55:09Z</time>
      </trkpt>
      <trkpt lat="59.5472063" lon="17.4725986">
        <ele>30.8</ele>
        <time>2011-01-30T14:55:13Z</time>
      </trkpt>
      <trkpt lat="59.5472519" lon="17.4726195">
        <ele>30.4</ele>
        <time>2011-01-30T14:55:14Z</time>
      </trkpt>
      <trkpt lat="59.5473146" lon="17.4726755">
        <ele>29</ele>
        <time>2011-01-30T14:55:16Z</time>
      </trkpt>
      <trkpt lat="59.5474238" lon="17.4727496">
        <ele>33.6</ele>
        <time>2011-01-30T14:55:19Z</time>
      </trkpt>
      <trkpt lat="59.5475669" lon="17.4729657">
        <ele>32.2</ele>
        <time>2011-01-30T14:55:25Z</time>
      </trkpt>
      <trkpt lat="59.5476249" lon="17.4730698">
        <ele>30.4</ele>
        <time>2011-01-30T14:55:27Z</time>
      </trkpt>
      <trkpt lat="59.5477005" lon="17.4732898">
        <ele>33.6</ele>
        <time>2011-01-30T14:55:30Z</time>
      </trkpt>
      <trkpt lat="59.5477725" lon="17.4736333">
        <ele>37.4</ele>
        <time>2011-01-30T14:55:35Z</time>
      </trkpt>
      <trkpt lat="59.5478083" lon="17.4738483">
        <ele>39</ele>
        <time>2011-01-30T14:55:38Z</time>
      </trkpt>
      <trkpt lat="59.5478311" lon="17.4739995">
        <ele>39.6</ele>
        <time>2011-01-30T14:55:40Z</time>
      </trkpt>
      <trkpt lat="59.5477834" lon="17.4743424">
        <ele>39.2</ele>
        <time>2011-01-30T14:55:45Z</time>
      </trkpt>
      <trkpt lat="59.5476459" lon="17.4746379">
        <ele>41</ele>
        <time>2011-01-30T14:55:50Z</time>
      </trkpt>
      <trkpt lat="59.5475279" lon="17.4747973">
        <ele>42.6</ele>
        <time>2011-01-30T14:55:54Z</time>
      </trkpt>
      <trkpt lat="59.5474611" lon="17.4748308">
        <ele>42.2</ele>
        <time>2011-01-30T14:55:56Z</time>
      </trkpt>
      <trkpt lat="59.5473023" lon="17.4749087">
        <ele>46.4</ele>
        <time>2011-01-30T14:56:01Z</time>
      </trkpt>
      <trkpt lat="59.547273" lon="17.4749411">
        <ele>47.4</ele>
        <time>2011-01-30T14:56:02Z</time>
      </trkpt>
      <trkpt lat="59.5471074" lon="17.475211">
        <ele>49</ele>
        <time>2011-01-30T14:56:08Z</time>
      </trkpt>
      <trkpt lat="59.5469839" lon="17.4754889">
        <ele>48.8</ele>
        <time>2011-01-30T14:56:14Z</time>
      </trkpt>
      <trkpt lat="59.546891" lon="17.4757846">
        <ele>45.6</ele>
        <time>2011-01-30T14:56:19Z</time>
      </trkpt>
      <trkpt lat="59.5467661" lon="17.4760838">
        <ele>45.6</ele>
        <time>2011-01-30T14:56:24Z</time>
      </trkpt>
      <trkpt lat="59.5466842" lon="17.4762247">
        <ele>45</ele>
        <time>2011-01-30T14:56:27Z</time>
      </trkpt>
      <trkpt lat="59.5466929" lon="17.4764031">
        <ele>43</ele>
        <time>2011-01-30T14:56:29Z</time>
      </trkpt>
      <trkpt lat="59.5467391" lon="17.4766189">
        <ele>41.2</ele>
        <time>2011-01-30T14:56:31Z</time>
      </trkpt>
      <trkpt lat="59.5467666" lon="17.4767393">
        <ele>41</ele>
        <time>2011-01-30T14:56:32Z</time>
      </trkpt>
      <trkpt lat="59.546813" lon="17.4770092">
        <ele>39.8</ele>
        <time>2011-01-30T14:56:34Z</time>
      </trkpt>
      <trkpt lat="59.5468209" lon="17.4771563">
        <ele>38.8</ele>
        <time>2011-01-30T14:56:35Z</time>
      </trkpt>
      <trkpt lat="59.5467795" lon="17.4775506">
        <ele>37.8</ele>
        <time>2011-01-30T14:56:38Z</time>
      </trkpt>
      <trkpt lat="59.5466618" lon="17.477886">
        <ele>39</ele>
        <time>2011-01-30T14:56:43Z</time>
      </trkpt>
      <trkpt lat="59.5466417" lon="17.4779393">
        <ele>39.4</ele>
        <time>2011-01-30T14:56:44Z</time>
      </trkpt>
      <trkpt lat="59.5466193" lon="17.477984">
        <ele>39.2</ele>
        <time>2011-01-30T14:56:45Z</time>
      </trkpt>
      <trkpt lat="59.5465172" lon="17.4781431">
        <ele>41.6</ele>
        <time>2011-01-30T14:56:50Z</time>
      </trkpt>
      <trkpt lat="59.5464961" lon="17.4781913">
        <ele>42.4</ele>
        <time>2011-01-30T14:56:51Z</time>
      </trkpt>
      <trkpt lat="59.5464445" lon="17.4784954">
        <ele>44</ele>
        <time>2011-01-30T14:56:55Z</time>
      </trkpt>
      <trkpt lat="59.5464164" lon="17.4788992">
        <ele>45</ele>
        <time>2011-01-30T14:56:59Z</time>
      </trkpt>
      <trkpt lat="59.5464153" lon="17.4792927">
        <ele>44</ele>
        <time>2011-01-30T14:57:03Z</time>
      </trkpt>
      <trkpt lat="59.5464183" lon="17.4793749">
        <ele>43.8</ele>
        <time>2011-01-30T14:57:04Z</time>
      </trkpt>
      <trkpt lat="59.5464267" lon="17.4796624">
        <ele>42.6</ele>
        <time>2011-01-30T14:57:07Z</time>
      </trkpt>
      <trkpt lat="59.5464257" lon="17.4799437">
        <ele>40.6</ele>
        <time>2011-01-30T14:57:10Z</time>
      </trkpt>
      <trkpt lat="59.5464262" lon="17.4800324">
        <ele>40</ele>
        <time>2011-01-30T14:57:11Z</time>
      </trkpt>
      <trkpt lat="59.5464288" lon="17.4802763">
        <ele>39.8</ele>
        <time>2011-01-30T14:57:14Z</time>
      </trkpt>
      <trkpt lat="59.5464402" lon="17.4803771">
        <ele>40.6</ele>
        <time>2011-01-30T14:57:15Z</time>
      </trkpt>
      <trkpt lat="59.5465211" lon="17.4807027">
        <ele>39.2</ele>
        <time>2011-01-30T14:57:19Z</time>
      </trkpt>
      <trkpt lat="59.5466343" lon="17.4808337">
        <ele>38.2</ele>
        <time>2011-01-30T14:57:22Z</time>
      </trkpt>
      <trkpt lat="59.54668" lon="17.4808584">
        <ele>38</ele>
        <time>2011-01-30T14:57:23Z</time>
      </trkpt>
      <trkpt lat="59.5468681" lon="17.4809522">
        <ele>35.8</ele>
        <time>2011-01-30T14:57:28Z</time>
      </trkpt>
      <trkpt lat="59.5470588" lon="17.4808849">
        <ele>29.6</ele>
        <time>2011-01-30T14:57:36Z</time>
      </trkpt>
      <trkpt lat="59.5470946" lon="17.4808596">
        <ele>31.6</ele>
        <time>2011-01-30T14:57:37Z</time>
      </trkpt>
      <trkpt lat="59.5472243" lon="17.4806475">
        <ele>36.4</ele>
        <time>2011-01-30T14:57:41Z</time>
      </trkpt>
      <trkpt lat="59.5473483" lon="17.4803849">
        <ele>36.6</ele>
        <time>2011-01-30T14:57:45Z</time>
      </trkpt>
      <trkpt lat="59.5474774" lon="17.4800901">
        <ele>34.8</ele>
        <time>2011-01-30T14:57:49Z</time>
      </trkpt>
      <trkpt lat="59.5475856" lon="17.4798298">
        <ele>33.4</ele>
        <time>2011-01-30T14:57:52Z</time>
      </trkpt>
      <trkpt lat="59.5476554" lon="17.4796292">
        <ele>31.8</ele>
        <time>2011-01-30T14:57:54Z</time>
      </trkpt>
      <trkpt lat="59.5476886" lon="17.4795187">
        <ele>30.8</ele>
        <time>2011-01-30T14:57:55Z</time>
      </trkpt>
      <trkpt lat="59.5477844" lon="17.4791771">
        <ele>28.2</ele>
        <time>2011-01-30T14:57:58Z</time>
      </trkpt>
      <trkpt lat="59.5478211" lon="17.4790707">
        <ele>27.8</ele>
        <time>2011-01-30T14:57:59Z</time>
      </trkpt>
      <trkpt lat="59.5479264" lon="17.4789669">
        <ele>27.8</ele>
        <time>2011-01-30T14:58:01Z</time>
      </trkpt>
      <trkpt lat="59.548089" lon="17.4791225">
        <ele>29</ele>
        <time>2011-01-30T14:58:04Z</time>
      </trkpt>
      <trkpt lat="59.5481579" lon="17.4792595">
        <ele>28.8</ele>
        <time>2011-01-30T14:58:06Z</time>
      </trkpt>
      <trkpt lat="59.5481818" lon="17.4794866">
        <ele>27.8</ele>
        <time>2011-01-30T14:58:08Z</time>
      </trkpt>
      <trkpt lat="59.5481943" lon="17.4796096">
        <ele>27.6</ele>
        <time>2011-01-30T14:58:09Z</time>
      </trkpt>
      <trkpt lat="59.5482103" lon="17.4798757">
        <ele>28</ele>
        <time>2011-01-30T14:58:11Z</time>
      </trkpt>
      <trkpt lat="59.5481697" lon="17.4802735">
        <ele>32.2</ele>
        <time>2011-01-30T14:58:15Z</time>
      </trkpt>
      <trkpt lat="59.5481487" lon="17.4803452">
        <ele>33.4</ele>
        <time>2011-01-30T14:58:16Z</time>
      </trkpt>
      <trkpt lat="59.5480534" lon="17.4806228">
        <ele>37.6</ele>
        <time>2011-01-30T14:58:19Z</time>
      </trkpt>
      <trkpt lat="59.5480265" lon="17.4809816">
        <ele>41.8</ele>
        <time>2011-01-30T14:58:23Z</time>
      </trkpt>
      <trkpt lat="59.5480138" lon="17.4812206">
        <ele>44.2</ele>
        <time>2011-01-30T14:58:26Z</time>
      </trkpt>
      <trkpt lat="59.5480087" lon="17.481417">
        <ele>46.4</ele>
        <time>2011-01-30T14:58:28Z</time>
      </trkpt>
      <trkpt lat="59.5479947" lon="17.4816193">
        <ele>47</ele>
        <time>2011-01-30T14:58:30Z</time>
      </trkpt>
      <trkpt lat="59.5479875" lon="17.481707">
        <ele>47.8</ele>
        <time>2011-01-30T14:58:31Z</time>
      </trkpt>
      <trkpt lat="59.5479754" lon="17.4818037">
        <ele>48.4</ele>
        <time>2011-01-30T14:58:32Z</time>
      </trkpt>
      <trkpt lat="59.5479689" lon="17.4819024">
        <ele>49.2</ele>
        <time>2011-01-30T14:58:33Z</time>
      </trkpt>
      <trkpt lat="59.547914" lon="17.4821938">
        <ele>49.2</ele>
        <time>2011-01-30T14:58:36Z</time>
      </trkpt>
      <trkpt lat="59.5478668" lon="17.482338">
        <ele>48.2</ele>
        <time>2011-01-30T14:58:38Z</time>
      </trkpt>
      <trkpt lat="59.547785" lon="17.482522">
        <ele>49.4</ele>
        <time>2011-01-30T14:58:41Z</time>
      </trkpt>
      <trkpt lat="59.5476894" lon="17.48266">
        <ele>51.4</ele>
        <time>2011-01-30T14:58:44Z</time>
      </trkpt>
      <trkpt lat="59.5476268" lon="17.482756">
        <ele>52</ele>
        <time>2011-01-30T14:58:46Z</time>
      </trkpt>
      <trkpt lat="59.5474742" lon="17.482931">
        <ele>51.6</ele>
        <time>2011-01-30T14:58:50Z</time>
      </trkpt>
      <trkpt lat="59.547341" lon="17.4831743">
        <ele>48.6</ele>
        <time>2011-01-30T14:58:54Z</time>
      </trkpt>
      <trkpt lat="59.5472668" lon="17.4835295">
        <ele>45.2</ele>
        <time>2011-01-30T14:58:58Z</time>
      </trkpt>
      <trkpt lat="59.547267" lon="17.4836053">
        <ele>45</ele>
        <time>2011-01-30T14:58:59Z</time>
      </trkpt>
      <trkpt lat="59.5472943" lon="17.4839603">
        <ele>43</ele>
        <time>2011-01-30T14:59:03Z</time>
      </trkpt>
      <trkpt lat="59.5473623" lon="17.4842394">
        <ele>43.2</ele>
        <time>2011-01-30T14:59:06Z</time>
      </trkpt>
      <trkpt lat="59.5473874" lon="17.4843322">
        <ele>42.4</ele>
        <time>2011-01-30T14:59:07Z</time>
      </trkpt>
      <trkpt lat="59.5474346" lon="17.4846482">
        <ele>41.4</ele>
        <time>2011-01-30T14:59:10Z</time>
      </trkpt>
      <trkpt lat="59.547442" lon="17.4847435">
        <ele>41.2</ele>
        <time>2011-01-30T14:59:11Z</time>
      </trkpt>
      <trkpt lat="59.5474814" lon="17.4850953">
        <ele>40</ele>
        <time>2011-01-30T14:59:15Z</time>
      </trkpt>
      <trkpt lat="59.5475746" lon="17.4853129">
        <ele>41</ele>
        <time>2011-01-30T14:59:18Z</time>
      </trkpt>
      <trkpt lat="59.5476281" lon="17.4853495">
        <ele>41.2</ele>
        <time>2011-01-30T14:59:19Z</time>
      </trkpt>
      <trkpt lat="59.5478568" lon="17.4853481">
        <ele>40</ele>
        <time>2011-01-30T14:59:23Z</time>
      </trkpt>
      <trkpt lat="59.5480103" lon="17.4852917">
        <ele>38.2</ele>
        <time>2011-01-30T14:59:26Z</time>
      </trkpt>
      <trkpt lat="59.5480537" lon="17.4852958">
        <ele>37.8</ele>
        <time>2011-01-30T14:59:27Z</time>
      </trkpt>
      <trkpt lat="59.5482025" lon="17.4853432">
        <ele>36.8</ele>
        <time>2011-01-30T14:59:31Z</time>
      </trkpt>
      <trkpt lat="59.5482408" lon="17.4853916">
        <ele>34.4</ele>
        <time>2011-01-30T14:59:32Z</time>
      </trkpt>
      <trkpt lat="59.5484061" lon="17.4856965">
        <ele>27.2</ele>
        <time>2011-01-30T14:59:36Z</time>
      </trkpt>
      <trkpt lat="59.5484834" lon="17.4858868">
        <ele>29.2</ele>
        <time>2011-01-30T14:59:38Z</time>
      </trkpt>
      <trkpt lat="59.5485117" lon="17.4859816">
        <ele>29.4</ele>
        <time>2011-01-30T14:59:39Z</time>
      </trkpt>
      <trkpt lat="59.5485236" lon="17.4860809">
        <ele>28.8</ele>
        <time>2011-01-30T14:59:40Z</time>
      </trkpt>
      <trkpt lat="59.5486163" lon="17.486483">
        <ele>29.6</ele>
        <time>2011-01-30T14:59:44Z</time>
      </trkpt>
      <trkpt lat="59.5486827" lon="17.4868571">
        <ele>29.2</ele>
        <time>2011-01-30T14:59:48Z</time>
      </trkpt>
      <trkpt lat="59.5487091" lon="17.4869255">
        <ele>29.6</ele>
        <time>2011-01-30T14:59:49Z</time>
      </trkpt>
      <trkpt lat="59.5487697" lon="17.4870477">
        <ele>29</ele>
        <time>2011-01-30T14:59:51Z</time>
      </trkpt>
      <trkpt lat="59.548803" lon="17.4871135">
        <ele>28.6</ele>
        <time>2011-01-30T14:59:52Z</time>
      </trkpt>
      <trkpt lat="59.548879" lon="17.4872694">
        <ele>25.4</ele>
        <time>2011-01-30T14:59:54Z</time>
      </trkpt>
      <trkpt lat="59.5489339" lon="17.4874632">
        <ele>23.4</ele>
        <time>2011-01-30T14:59:56Z</time>
      </trkpt>
      <trkpt lat="59.5489912" lon="17.4877614">
        <ele>23.6</ele>
        <time>2011-01-30T14:59:59Z</time>
      </trkpt>
      <trkpt lat="59.5490002" lon="17.4878712">
        <ele>23.4</ele>
        <time>2011-01-30T15:00:00Z</time>
      </trkpt>
      <trkpt lat="59.5490135" lon="17.4879682">
        <ele>24.4</ele>
        <time>2011-01-30T15:00:01Z</time>
      </trkpt>
      <trkpt lat="59.5490332" lon="17.4882846">
        <ele>30.8</ele>
        <time>2011-01-30T15:00:05Z</time>
      </trkpt>
      <trkpt lat="59.5490602" lon="17.4885898">
        <ele>34</ele>
        <time>2011-01-30T15:00:09Z</time>
      </trkpt>
      <trkpt lat="59.5490748" lon="17.488667">
        <ele>35.2</ele>
        <time>2011-01-30T15:00:10Z</time>
      </trkpt>
      <trkpt lat="59.5492142" lon="17.4890565">
        <ele>36.6</ele>
        <time>2011-01-30T15:00:14Z</time>
      </trkpt>
      <trkpt lat="59.549351" lon="17.4893369">
        <ele>36.4</ele>
        <time>2011-01-30T15:00:17Z</time>
      </trkpt>
      <trkpt lat="59.5494496" lon="17.4894964">
        <ele>36.2</ele>
        <time>2011-01-30T15:00:19Z</time>
      </trkpt>
      <trkpt lat="59.5495369" lon="17.4896429">
        <ele>34.4</ele>
        <time>2011-01-30T15:00:21Z</time>
      </trkpt>
      <trkpt lat="59.5496861" lon="17.4899587">
        <ele>32.8</ele>
        <time>2011-01-30T15:00:25Z</time>
      </trkpt>
      <trkpt lat="59.5497254" lon="17.4901367">
        <ele>33.8</ele>
        <time>2011-01-30T15:00:27Z</time>
      </trkpt>
      <trkpt lat="59.5497156" lon="17.4903055">
        <ele>36.2</ele>
        <time>2011-01-30T15:00:29Z</time>
      </trkpt>
      <trkpt lat="59.5496273" lon="17.4906868">
        <ele>37.2</ele>
        <time>2011-01-30T15:00:33Z</time>
      </trkpt>
      <trkpt lat="59.5495281" lon="17.4910508">
        <ele>37.6</ele>
        <time>2011-01-30T15:00:38Z</time>
      </trkpt>
      <trkpt lat="59.5494575" lon="17.4913219">
        <ele>37.8</ele>
        <time>2011-01-30T15:00:42Z</time>
      </trkpt>
      <trkpt lat="59.5494291" lon="17.4914058">
        <ele>38.6</ele>
        <time>2011-01-30T15:00:43Z</time>
      </trkpt>
      <trkpt lat="59.5493405" lon="17.4916536">
        <ele>37.8</ele>
        <time>2011-01-30T15:00:46Z</time>
      </trkpt>
      <trkpt lat="59.5493126" lon="17.4917274">
        <ele>38.4</ele>
        <time>2011-01-30T15:00:47Z</time>
      </trkpt>
      <trkpt lat="59.5491806" lon="17.4920433">
        <ele>35</ele>
        <time>2011-01-30T15:00:51Z</time>
      </trkpt>
      <trkpt lat="59.5490684" lon="17.4923427">
        <ele>36.2</ele>
        <time>2011-01-30T15:00:55Z</time>
      </trkpt>
      <trkpt lat="59.5489718" lon="17.4925223">
        <ele>34.8</ele>
        <time>2011-01-30T15:00:58Z</time>
      </trkpt>
      <trkpt lat="59.548908" lon="17.4926162">
        <ele>35.4</ele>
        <time>2011-01-30T15:01:00Z</time>
      </trkpt>
      <trkpt lat="59.5488368" lon="17.4926845">
        <ele>33.6</ele>
        <time>2011-01-30T15:01:02Z</time>
      </trkpt>
      <trkpt lat="59.5487222" lon="17.4928013">
        <ele>31.8</ele>
        <time>2011-01-30T15:01:05Z</time>
      </trkpt>
      <trkpt lat="59.5486899" lon="17.4928375">
        <ele>31</ele>
        <time>2011-01-30T15:01:06Z</time>
      </trkpt>
      <trkpt lat="59.548661" lon="17.4928653">
        <ele>31.2</ele>
        <time>2011-01-30T15:01:07Z</time>
      </trkpt>
      <trkpt lat="59.548346" lon="17.4931903">
        <ele>30.4</ele>
        <time>2011-01-30T15:03:35Z</time>
      </trkpt>
      <trkpt lat="59.5481876" lon="17.4933472">
        <ele>29.4</ele>
        <time>2011-01-30T15:03:39Z</time>
      </trkpt>
      <trkpt lat="59.5480009" lon="17.4935098">
        <ele>27.4</ele>
        <time>2011-01-30T15:03:43Z</time>
      </trkpt>
      <trkpt lat="59.5478098" lon="17.4936338">
        <ele>27.4</ele>
        <time>2011-01-30T15:03:47Z</time>
      </trkpt>
      <trkpt lat="59.5476773" lon="17.4936956">
        <ele>27.4</ele>
        <time>2011-01-30T15:03:50Z</time>
      </trkpt>
      <trkpt lat="59.5475975" lon="17.4937124">
        <ele>27</ele>
        <time>2011-01-30T15:03:52Z</time>
      </trkpt>
      <trkpt lat="59.5473995" lon="17.4937588">
        <ele>27.6</ele>
        <time>2011-01-30T15:03:56Z</time>
      </trkpt>
      <trkpt lat="59.5473524" lon="17.4937637">
        <ele>27.8</ele>
        <time>2011-01-30T15:03:57Z</time>
      </trkpt>
      <trkpt lat="59.5472285" lon="17.4937402">
        <ele>29.4</ele>
        <time>2011-01-30T15:04:00Z</time>
      </trkpt>
      <trkpt lat="59.5471908" lon="17.4937093">
        <ele>30</ele>
        <time>2011-01-30T15:04:01Z</time>
      </trkpt>
      <trkpt lat="59.547098" lon="17.4936126">
        <ele>31.4</ele>
        <time>2011-01-30T15:04:04Z</time>
      </trkpt>
      <trkpt lat="59.5470645" lon="17.4935737">
        <ele>31</ele>
        <time>2011-01-30T15:04:05Z</time>
      </trkpt>
      <trkpt lat="59.547008" lon="17.4934965">
        <ele>31.2</ele>
        <time>2011-01-30T15:04:07Z</time>
      </trkpt>
      <trkpt lat="59.5468389" lon="17.4932902">
        <ele>34.8</ele>
        <time>2011-01-30T15:04:13Z</time>
      </trkpt>
      <trkpt lat="59.5466722" lon="17.4931245">
        <ele>37.8</ele>
        <time>2011-01-30T15:04:19Z</time>
      </trkpt>
      <trkpt lat="59.5465491" lon="17.4928528">
        <ele>37.6</ele>
        <time>2011-01-30T15:04:25Z</time>
      </trkpt>
      <trkpt lat="59.5464519" lon="17.4925064">
        <ele>36.2</ele>
        <time>2011-01-30T15:04:30Z</time>
      </trkpt>
      <trkpt lat="59.5463412" lon="17.4921572">
        <ele>36.6</ele>
        <time>2011-01-30T15:04:37Z</time>
      </trkpt>
      <trkpt lat="59.5462325" lon="17.4918042">
        <ele>37</ele>
        <time>2011-01-30T15:04:42Z</time>
      </trkpt>
      <trkpt lat="59.5461359" lon="17.4914468">
        <ele>36.8</ele>
        <time>2011-01-30T15:04:47Z</time>
      </trkpt>
      <trkpt lat="59.5460875" lon="17.4913072">
        <ele>35.4</ele>
        <time>2011-01-30T15:04:49Z</time>
      </trkpt>
      <trkpt lat="59.5460274" lon="17.4910794">
        <ele>35.6</ele>
        <time>2011-01-30T15:04:52Z</time>
      </trkpt>
      <trkpt lat="59.5459707" lon="17.4909576">
        <ele>35</ele>
        <time>2011-01-30T15:04:54Z</time>
      </trkpt>
      <trkpt lat="59.5458492" lon="17.4908095">
        <ele>35</ele>
        <time>2011-01-30T15:04:57Z</time>
      </trkpt>
      <trkpt lat="59.545807" lon="17.4907645">
        <ele>35.8</ele>
        <time>2011-01-30T15:04:58Z</time>
      </trkpt>
      <trkpt lat="59.5456514" lon="17.4906825">
        <ele>36.4</ele>
        <time>2011-01-30T15:05:01Z</time>
      </trkpt>
      <trkpt lat="59.5455542" lon="17.4906126">
        <ele>35.6</ele>
        <time>2011-01-30T15:05:03Z</time>
      </trkpt>
      <trkpt lat="59.5455141" lon="17.4905672">
        <ele>35.8</ele>
        <time>2011-01-30T15:05:04Z</time>
      </trkpt>
      <trkpt lat="59.5454819" lon="17.4905147">
        <ele>35.6</ele>
        <time>2011-01-30T15:05:05Z</time>
      </trkpt>
      <trkpt lat="59.5453828" lon="17.490365">
        <ele>36.4</ele>
        <time>2011-01-30T15:05:08Z</time>
      </trkpt>
      <trkpt lat="59.5453235" lon="17.4902125">
        <ele>36.4</ele>
        <time>2011-01-30T15:05:10Z</time>
      </trkpt>
      <trkpt lat="59.5453067" lon="17.4901323">
        <ele>35.2</ele>
        <time>2011-01-30T15:05:11Z</time>
      </trkpt>
      <trkpt lat="59.5453159" lon="17.489802">
        <ele>35</ele>
        <time>2011-01-30T15:05:15Z</time>
      </trkpt>
      <trkpt lat="59.5453264" lon="17.4897232">
        <ele>34.4</ele>
        <time>2011-01-30T15:05:16Z</time>
      </trkpt>
      <trkpt lat="59.5453813" lon="17.4894511">
        <ele>34.4</ele>
        <time>2011-01-30T15:05:19Z</time>
      </trkpt>
      <trkpt lat="59.5455042" lon="17.4891618">
        <ele>35</ele>
        <time>2011-01-30T15:05:23Z</time>
      </trkpt>
      <trkpt lat="59.5455351" lon="17.4891261">
        <ele>34.6</ele>
        <time>2011-01-30T15:05:24Z</time>
      </trkpt>
      <trkpt lat="59.5455599" lon="17.4891048">
        <ele>34.6</ele>
        <time>2011-01-30T15:05:25Z</time>
      </trkpt>
      <trkpt lat="59.5456573" lon="17.4891175">
        <ele>34</ele>
        <time>2011-01-30T15:05:28Z</time>
      </trkpt>
      <trkpt lat="59.5456901" lon="17.4891565">
        <ele>34</ele>
        <time>2011-01-30T15:05:29Z</time>
      </trkpt>
      <trkpt lat="59.5458796" lon="17.4893255">
        <ele>33.8</ele>
        <time>2011-01-30T15:05:33Z</time>
      </trkpt>
      <trkpt lat="59.5459378" lon="17.4893509">
        <ele>34.4</ele>
        <time>2011-01-30T15:05:34Z</time>
      </trkpt>
      <trkpt lat="59.5459871" lon="17.4893607">
        <ele>34.8</ele>
        <time>2011-01-30T15:05:35Z</time>
      </trkpt>
      <trkpt lat="59.5460817" lon="17.4893381">
        <ele>35.2</ele>
        <time>2011-01-30T15:05:37Z</time>
      </trkpt>
      <trkpt lat="59.5461629" lon="17.489257">
        <ele>34.8</ele>
        <time>2011-01-30T15:05:39Z</time>
      </trkpt>
      <trkpt lat="59.5462031" lon="17.4892268">
        <ele>35.2</ele>
        <time>2011-01-30T15:05:40Z</time>
      </trkpt>
      <trkpt lat="59.546265" lon="17.4891471">
        <ele>35.2</ele>
        <time>2011-01-30T15:05:42Z</time>
      </trkpt>
      <trkpt lat="59.5464108" lon="17.4889432">
        <ele>35</ele>
        <time>2011-01-30T15:05:46Z</time>
      </trkpt>
      <trkpt lat="59.5465977" lon="17.4888901">
        <ele>33.2</ele>
        <time>2011-01-30T15:05:50Z</time>
      </trkpt>
      <trkpt lat="59.5466474" lon="17.4889075">
        <ele>33.4</ele>
        <time>2011-01-30T15:05:51Z</time>
      </trkpt>
      <trkpt lat="59.5467448" lon="17.4889716">
        <ele>35.2</ele>
        <time>2011-01-30T15:05:54Z</time>
      </trkpt>
      <trkpt lat="59.5468158" lon="17.488961">
        <ele>36.6</ele>
        <time>2011-01-30T15:05:56Z</time>
      </trkpt>
      <trkpt lat="59.5470078" lon="17.4889364">
        <ele>38.4</ele>
        <time>2011-01-30T15:06:01Z</time>
      </trkpt>
      <trkpt lat="59.5472027" lon="17.4889388">
        <ele>38</ele>
        <time>2011-01-30T15:06:06Z</time>
      </trkpt>
      <trkpt lat="59.5473123" lon="17.4889709">
        <ele>37</ele>
        <time>2011-01-30T15:06:08Z</time>
      </trkpt>
      <trkpt lat="59.5474134" lon="17.4890701">
        <ele>35.2</ele>
        <time>2011-01-30T15:06:10Z</time>
      </trkpt>
      <trkpt lat="59.5474701" lon="17.4891009">
        <ele>35.2</ele>
        <time>2011-01-30T15:06:11Z</time>
      </trkpt>
      <trkpt lat="59.5476109" lon="17.48908">
        <ele>34.6</ele>
        <time>2011-01-30T15:06:14Z</time>
      </trkpt>
      <trkpt lat="59.5477658" lon="17.4888595">
        <ele>33.6</ele>
        <time>2011-01-30T15:06:18Z</time>
      </trkpt>
      <trkpt lat="59.5478198" lon="17.4887">
        <ele>34.6</ele>
        <time>2011-01-30T15:06:20Z</time>
      </trkpt>
      <trkpt lat="59.5478946" lon="17.4884971">
        <ele>34.8</ele>
        <time>2011-01-30T15:06:23Z</time>
      </trkpt>
      <trkpt lat="59.5480826" lon="17.4882588">
        <ele>35.8</ele>
        <time>2011-01-30T15:06:28Z</time>
      </trkpt>
      <trkpt lat="59.548275" lon="17.4880115">
        <ele>38.6</ele>
        <time>2011-01-30T15:06:33Z</time>
      </trkpt>
      <trkpt lat="59.548458" lon="17.4877822">
        <ele>37.8</ele>
        <time>2011-01-30T15:06:38Z</time>
      </trkpt>
      <trkpt lat="59.5485033" lon="17.4877165">
        <ele>37.2</ele>
        <time>2011-01-30T15:06:39Z</time>
      </trkpt>
      <trkpt lat="59.5485986" lon="17.487545">
        <ele>35.4</ele>
        <time>2011-01-30T15:06:41Z</time>
      </trkpt>
      <trkpt lat="59.5486972" lon="17.4871732">
        <ele>34</ele>
        <time>2011-01-30T15:06:44Z</time>
      </trkpt>
      <trkpt lat="59.5487132" lon="17.486772">
        <ele>32.6</ele>
        <time>2011-01-30T15:06:47Z</time>
      </trkpt>
      <trkpt lat="59.5486832" lon="17.4865328">
        <ele>31.4</ele>
        <time>2011-01-30T15:06:49Z</time>
      </trkpt>
      <trkpt lat="59.5486474" lon="17.4863117">
        <ele>30.2</ele>
        <time>2011-01-30T15:06:51Z</time>
      </trkpt>
      <trkpt lat="59.5486049" lon="17.486104">
        <ele>29.6</ele>
        <time>2011-01-30T15:06:53Z</time>
      </trkpt>
      <trkpt lat="59.548523" lon="17.485922">
        <ele>28.4</ele>
        <time>2011-01-30T15:06:55Z</time>
      </trkpt>
      <trkpt lat="59.5484615" lon="17.4857825">
        <ele>28.2</ele>
        <time>2011-01-30T15:06:57Z</time>
      </trkpt>
      <trkpt lat="59.5484278" lon="17.4857264">
        <ele>28.4</ele>
        <time>2011-01-30T15:06:58Z</time>
      </trkpt>
      <trkpt lat="59.5483926" lon="17.4856655">
        <ele>28</ele>
        <time>2011-01-30T15:06:59Z</time>
      </trkpt>
      <trkpt lat="59.5483557" lon="17.4856235">
        <ele>28</ele>
        <time>2011-01-30T15:07:00Z</time>
      </trkpt>
      <trkpt lat="59.5482076" lon="17.4854515">
        <ele>28.4</ele>
        <time>2011-01-30T15:07:04Z</time>
      </trkpt>
      <trkpt lat="59.5480032" lon="17.4853776">
        <ele>32.6</ele>
        <time>2011-01-30T15:07:09Z</time>
      </trkpt>
      <trkpt lat="59.5479672" lon="17.4853766">
        <ele>33.4</ele>
        <time>2011-01-30T15:07:10Z</time>
      </trkpt>
      <trkpt lat="59.5478523" lon="17.4853661">
        <ele>34.2</ele>
        <time>2011-01-30T15:07:13Z</time>
      </trkpt>
      <trkpt lat="59.5478141" lon="17.4853645">
        <ele>34.8</ele>
        <time>2011-01-30T15:07:14Z</time>
      </trkpt>
      <trkpt lat="59.5476214" lon="17.4853565">
        <ele>36.4</ele>
        <time>2011-01-30T15:07:19Z</time>
      </trkpt>
      <trkpt lat="59.5474414" lon="17.4854005">
        <ele>37.8</ele>
        <time>2011-01-30T15:07:24Z</time>
      </trkpt>
      <trkpt lat="59.5472892" lon="17.4854848">
        <ele>41.2</ele>
        <time>2011-01-30T15:07:30Z</time>
      </trkpt>
      <trkpt lat="59.5472513" lon="17.4855362">
        <ele>43.2</ele>
        <time>2011-01-30T15:07:32Z</time>
      </trkpt>
      <trkpt lat="59.5471008" lon="17.4857349">
        <ele>46</ele>
        <time>2011-01-30T15:07:38Z</time>
      </trkpt>
      <trkpt lat="59.5469531" lon="17.4859258">
        <ele>47</ele>
        <time>2011-01-30T15:07:44Z</time>
      </trkpt>
      <trkpt lat="59.5468023" lon="17.4861532">
        <ele>46.4</ele>
        <time>2011-01-30T15:07:50Z</time>
      </trkpt>
      <trkpt lat="59.5466356" lon="17.4864169">
        <ele>47.2</ele>
        <time>2011-01-30T15:07:55Z</time>
      </trkpt>
      <trkpt lat="59.5465054" lon="17.4865712">
        <ele>46.2</ele>
        <time>2011-01-30T15:07:58Z</time>
      </trkpt>
      <trkpt lat="59.5464506" lon="17.4866072">
        <ele>46.4</ele>
        <time>2011-01-30T15:07:59Z</time>
      </trkpt>
      <trkpt lat="59.5462765" lon="17.4866823">
        <ele>45.4</ele>
        <time>2011-01-30T15:08:02Z</time>
      </trkpt>
      <trkpt lat="59.5461413" lon="17.4866524">
        <ele>45</ele>
        <time>2011-01-30T15:08:04Z</time>
      </trkpt>
      <trkpt lat="59.5460787" lon="17.486638">
        <ele>45.4</ele>
        <time>2011-01-30T15:08:05Z</time>
      </trkpt>
      <trkpt lat="59.5458894" lon="17.4865888">
        <ele>44</ele>
        <time>2011-01-30T15:08:08Z</time>
      </trkpt>
      <trkpt lat="59.5458285" lon="17.4865455">
        <ele>43.4</ele>
        <time>2011-01-30T15:08:09Z</time>
      </trkpt>
      <trkpt lat="59.5457244" lon="17.4864127">
        <ele>43</ele>
        <time>2011-01-30T15:08:11Z</time>
      </trkpt>
      <trkpt lat="59.5456177" lon="17.486179">
        <ele>42.2</ele>
        <time>2011-01-30T15:08:14Z</time>
      </trkpt>
      <trkpt lat="59.545588" lon="17.4860976">
        <ele>41.8</ele>
        <time>2011-01-30T15:08:15Z</time>
      </trkpt>
      <trkpt lat="59.5454969" lon="17.4858481">
        <ele>40.6</ele>
        <time>2011-01-30T15:08:18Z</time>
      </trkpt>
      <trkpt lat="59.5454765" lon="17.4857518">
        <ele>40</ele>
        <time>2011-01-30T15:08:19Z</time>
      </trkpt>
      <trkpt lat="59.545445" lon="17.4855764">
        <ele>39.6</ele>
        <time>2011-01-30T15:08:21Z</time>
      </trkpt>
      <trkpt lat="59.5454093" lon="17.4853585">
        <ele>38.8</ele>
        <time>2011-01-30T15:08:23Z</time>
      </trkpt>
      <trkpt lat="59.5453797" lon="17.4850744">
        <ele>36</ele>
        <time>2011-01-30T15:08:25Z</time>
      </trkpt>
      <trkpt lat="59.5453665" lon="17.4849327">
        <ele>35.4</ele>
        <time>2011-01-30T15:08:26Z</time>
      </trkpt>
      <trkpt lat="59.5453637" lon="17.4848083">
        <ele>34.2</ele>
        <time>2011-01-30T15:08:27Z</time>
      </trkpt>
      <trkpt lat="59.5453817" lon="17.4845695">
        <ele>33.4</ele>
        <time>2011-01-30T15:08:29Z</time>
      </trkpt>
      <trkpt lat="59.545485" lon="17.4842601">
        <ele>31.8</ele>
        <time>2011-01-30T15:08:33Z</time>
      </trkpt>
      <trkpt lat="59.545513" lon="17.4842184">
        <ele>30.6</ele>
        <time>2011-01-30T15:08:34Z</time>
      </trkpt>
      <trkpt lat="59.5456394" lon="17.4840686">
        <ele>31.8</ele>
        <time>2011-01-30T15:08:38Z</time>
      </trkpt>
      <trkpt lat="59.5456734" lon="17.4840175">
        <ele>32.2</ele>
        <time>2011-01-30T15:08:39Z</time>
      </trkpt>
      <trkpt lat="59.5457088" lon="17.4839639">
        <ele>33</ele>
        <time>2011-01-30T15:08:40Z</time>
      </trkpt>
      <trkpt lat="59.545871" lon="17.4838827">
        <ele>32.4</ele>
        <time>2011-01-30T15:08:44Z</time>
      </trkpt>
      <trkpt lat="59.5459241" lon="17.4839017">
        <ele>32.2</ele>
        <time>2011-01-30T15:08:45Z</time>
      </trkpt>
      <trkpt lat="59.5460356" lon="17.4840219">
        <ele>31</ele>
        <time>2011-01-30T15:08:48Z</time>
      </trkpt>
      <trkpt lat="59.5460681" lon="17.4841904">
        <ele>30.4</ele>
        <time>2011-01-30T15:08:50Z</time>
      </trkpt>
      <trkpt lat="59.546079" lon="17.4842635">
        <ele>30.4</ele>
        <time>2011-01-30T15:08:51Z</time>
      </trkpt>
      <trkpt lat="59.5460903" lon="17.4844105">
        <ele>30.8</ele>
        <time>2011-01-30T15:08:53Z</time>
      </trkpt>
      <trkpt lat="59.5460933" lon="17.4844805">
        <ele>31.4</ele>
        <time>2011-01-30T15:08:54Z</time>
      </trkpt>
      <trkpt lat="59.5461258" lon="17.4847248">
        <ele>34.8</ele>
        <time>2011-01-30T15:08:58Z</time>
      </trkpt>
      <trkpt lat="59.5461324" lon="17.4847794">
        <ele>35.6</ele>
        <time>2011-01-30T15:08:59Z</time>
      </trkpt>
      <trkpt lat="59.5461387" lon="17.4848836">
        <ele>37</ele>
        <time>2011-01-30T15:09:02Z</time>
      </trkpt>
      <trkpt lat="59.5461645" lon="17.4849964">
        <ele>42.4</ele>
        <time>2011-01-30T15:09:09Z</time>
      </trkpt>
      <trkpt lat="59.5461966" lon="17.4850658">
        <ele>44.6</ele>
        <time>2011-01-30T15:09:30Z</time>
      </trkpt>
      <trkpt lat="59.5462377" lon="17.4851392">
        <ele>45</ele>
        <time>2011-01-30T15:09:34Z</time>
      </trkpt>
      <trkpt lat="59.5462449" lon="17.4851547">
        <ele>45</ele>
        <time>2011-01-30T15:09:35Z</time>
      </trkpt>
      <trkpt lat="59.5463152" lon="17.4854443">
        <ele>44.6</ele>
        <time>2011-01-30T15:09:47Z</time>
      </trkpt>
      <trkpt lat="59.546317" lon="17.4854779">
        <ele>44.4</ele>
        <time>2011-01-30T15:09:48Z</time>
      </trkpt>
      <trkpt lat="59.5463489" lon="17.4857045">
        <ele>44.8</ele>
        <time>2011-01-30T15:09:55Z</time>
      </trkpt>
      <trkpt lat="59.5463621" lon="17.4858028">
        <ele>45.4</ele>
        <time>2011-01-30T15:09:58Z</time>
      </trkpt>
      <trkpt lat="59.5464837" lon="17.4860811">
        <ele>43.8</ele>
        <time>2011-01-30T15:10:05Z</time>
      </trkpt>
      <trkpt lat="59.5466785" lon="17.4861561">
        <ele>41.8</ele>
        <time>2011-01-30T15:10:09Z</time>
      </trkpt>
      <trkpt lat="59.5467857" lon="17.4860816">
        <ele>40.8</ele>
        <time>2011-01-30T15:10:11Z</time>
      </trkpt>
      <trkpt lat="59.5468783" lon="17.4859672">
        <ele>39.4</ele>
        <time>2011-01-30T15:10:13Z</time>
      </trkpt>
      <trkpt lat="59.5469743" lon="17.4858491">
        <ele>38.8</ele>
        <time>2011-01-30T15:10:15Z</time>
      </trkpt>
      <trkpt lat="59.5470613" lon="17.4857129">
        <ele>39.2</ele>
        <time>2011-01-30T15:10:17Z</time>
      </trkpt>
      <trkpt lat="59.5471514" lon="17.4855776">
        <ele>39.6</ele>
        <time>2011-01-30T15:10:19Z</time>
      </trkpt>
      <trkpt lat="59.5472354" lon="17.4854393">
        <ele>38</ele>
        <time>2011-01-30T15:10:21Z</time>
      </trkpt>
      <trkpt lat="59.5474251" lon="17.4851896">
        <ele>35.4</ele>
        <time>2011-01-30T15:10:25Z</time>
      </trkpt>
      <trkpt lat="59.5474577" lon="17.4850964">
        <ele>34</ele>
        <time>2011-01-30T15:10:26Z</time>
      </trkpt>
      <trkpt lat="59.5474668" lon="17.4847866">
        <ele>33.4</ele>
        <time>2011-01-30T15:10:28Z</time>
      </trkpt>
      <trkpt lat="59.547389" lon="17.4844173">
        <ele>33.6</ele>
        <time>2011-01-30T15:10:31Z</time>
      </trkpt>
      <trkpt lat="59.5472612" lon="17.4841">
        <ele>34.2</ele>
        <time>2011-01-30T15:10:35Z</time>
      </trkpt>
      <trkpt lat="59.5471675" lon="17.4840214">
        <ele>34.6</ele>
        <time>2011-01-30T15:10:38Z</time>
      </trkpt>
      <trkpt lat="59.547152" lon="17.4840166">
        <ele>34.6</ele>
        <time>2011-01-30T15:10:39Z</time>
      </trkpt>
      <trkpt lat="59.5470815" lon="17.4840614">
        <ele>36.2</ele>
        <time>2011-01-30T15:10:43Z</time>
      </trkpt>
      <trkpt lat="59.546965" lon="17.4841453">
        <ele>36.2</ele>
        <time>2011-01-30T15:10:48Z</time>
      </trkpt>
      <trkpt lat="59.5469069" lon="17.4841783">
        <ele>37</ele>
        <time>2011-01-30T15:10:51Z</time>
      </trkpt>
      <trkpt lat="59.546724" lon="17.484234">
        <ele>40.4</ele>
        <time>2011-01-30T15:10:57Z</time>
      </trkpt>
      <trkpt lat="59.5466292" lon="17.4842333">
        <ele>42</ele>
        <time>2011-01-30T15:11:00Z</time>
      </trkpt>
      <trkpt lat="59.546534" lon="17.4841321">
        <ele>43.8</ele>
        <time>2011-01-30T15:11:03Z</time>
      </trkpt>
      <trkpt lat="59.5463768" lon="17.4838847">
        <ele>44</ele>
        <time>2011-01-30T15:11:06Z</time>
      </trkpt>
      <trkpt lat="59.5462387" lon="17.483676">
        <ele>44</ele>
        <time>2011-01-30T15:11:08Z</time>
      </trkpt>
      <trkpt lat="59.5460526" lon="17.4833375">
        <ele>46.2</ele>
        <time>2011-01-30T15:11:11Z</time>
      </trkpt>
      <trkpt lat="59.5460124" lon="17.4830567">
        <ele>46.6</ele>
        <time>2011-01-30T15:11:13Z</time>
      </trkpt>
      <trkpt lat="59.5460547" lon="17.482859">
        <ele>47.4</ele>
        <time>2011-01-30T15:11:15Z</time>
      </trkpt>
      <trkpt lat="59.5461253" lon="17.4825865">
        <ele>48.4</ele>
        <time>2011-01-30T15:11:18Z</time>
      </trkpt>
      <trkpt lat="59.5461491" lon="17.4824959">
        <ele>48.8</ele>
        <time>2011-01-30T15:11:19Z</time>
      </trkpt>
      <trkpt lat="59.546168" lon="17.4824105">
        <ele>48.6</ele>
        <time>2011-01-30T15:11:20Z</time>
      </trkpt>
      <trkpt lat="59.5462713" lon="17.4823016">
        <ele>47.2</ele>
        <time>2011-01-30T15:11:22Z</time>
      </trkpt>
      <trkpt lat="59.5463178" lon="17.4822535">
        <ele>47.4</ele>
        <time>2011-01-30T15:11:23Z</time>
      </trkpt>
      <trkpt lat="59.5465421" lon="17.4822344">
        <ele>49.2</ele>
        <time>2011-01-30T15:11:28Z</time>
      </trkpt>
      <trkpt lat="59.5465914" lon="17.4822323">
        <ele>49.8</ele>
        <time>2011-01-30T15:11:29Z</time>
      </trkpt>
      <trkpt lat="59.5467232" lon="17.4822341">
        <ele>48.2</ele>
        <time>2011-01-30T15:11:32Z</time>
      </trkpt>
      <trkpt lat="59.5467671" lon="17.4822238">
        <ele>48</ele>
        <time>2011-01-30T15:11:33Z</time>
      </trkpt>
      <trkpt lat="59.5468691" lon="17.4821794">
        <ele>48.6</ele>
        <time>2011-01-30T15:11:36Z</time>
      </trkpt>
      <trkpt lat="59.5469412" lon="17.482138">
        <ele>48.4</ele>
        <time>2011-01-30T15:11:38Z</time>
      </trkpt>
      <trkpt lat="59.5470911" lon="17.4819197">
        <ele>48</ele>
        <time>2011-01-30T15:11:44Z</time>
      </trkpt>
      <trkpt lat="59.5471238" lon="17.4815414">
        <ele>48.8</ele>
        <time>2011-01-30T15:11:51Z</time>
      </trkpt>
      <trkpt lat="59.547088" lon="17.4811496">
        <ele>46.2</ele>
        <time>2011-01-30T15:11:56Z</time>
      </trkpt>
      <trkpt lat="59.5469169" lon="17.4809041">
        <ele>46.2</ele>
        <time>2011-01-30T15:12:00Z</time>
      </trkpt>
      <trkpt lat="59.54672" lon="17.4807799">
        <ele>45.4</ele>
        <time>2011-01-30T15:12:03Z</time>
      </trkpt>
      <trkpt lat="59.5465847" lon="17.4806203">
        <ele>44</ele>
        <time>2011-01-30T15:12:06Z</time>
      </trkpt>
      <trkpt lat="59.5465396" lon="17.480562">
        <ele>44.2</ele>
        <time>2011-01-30T15:12:07Z</time>
      </trkpt>
      <trkpt lat="59.5464071" lon="17.4802466">
        <ele>43.6</ele>
        <time>2011-01-30T15:12:11Z</time>
      </trkpt>
      <trkpt lat="59.5463636" lon="17.4801084">
        <ele>43.8</ele>
        <time>2011-01-30T15:12:13Z</time>
      </trkpt>
      <trkpt lat="59.546324" lon="17.479977">
        <ele>44.2</ele>
        <time>2011-01-30T15:12:15Z</time>
      </trkpt>
      <trkpt lat="59.5463045" lon="17.4799052">
        <ele>44.4</ele>
        <time>2011-01-30T15:12:16Z</time>
      </trkpt>
      <trkpt lat="59.546235" lon="17.4795639">
        <ele>46.6</ele>
        <time>2011-01-30T15:12:21Z</time>
      </trkpt>
      <trkpt lat="59.5462537" lon="17.4794022">
        <ele>45.6</ele>
        <time>2011-01-30T15:12:24Z</time>
      </trkpt>
      <trkpt lat="59.5463065" lon="17.479222">
        <ele>43.8</ele>
        <time>2011-01-30T15:12:27Z</time>
      </trkpt>
      <trkpt lat="59.5463553" lon="17.4788363">
        <ele>40.8</ele>
        <time>2011-01-30T15:12:33Z</time>
      </trkpt>
      <trkpt lat="59.5463625" lon="17.4784893">
        <ele>40.2</ele>
        <time>2011-01-30T15:12:37Z</time>
      </trkpt>
      <trkpt lat="59.546462" lon="17.4781271">
        <ele>38</ele>
        <time>2011-01-30T15:12:43Z</time>
      </trkpt>
      <trkpt lat="59.5465956" lon="17.4779196">
        <ele>35.4</ele>
        <time>2011-01-30T15:12:47Z</time>
      </trkpt>
      <trkpt lat="59.5466395" lon="17.477836">
        <ele>35.4</ele>
        <time>2011-01-30T15:12:48Z</time>
      </trkpt>
      <trkpt lat="59.5467225" lon="17.4776458">
        <ele>34.6</ele>
        <time>2011-01-30T15:12:50Z</time>
      </trkpt>
      <trkpt lat="59.5468" lon="17.4772603">
        <ele>36.8</ele>
        <time>2011-01-30T15:12:53Z</time>
      </trkpt>
      <trkpt lat="59.5468068" lon="17.476922">
        <ele>37.4</ele>
        <time>2011-01-30T15:12:56Z</time>
      </trkpt>
      <trkpt lat="59.5468032" lon="17.4768537">
        <ele>37</ele>
        <time>2011-01-30T15:12:57Z</time>
      </trkpt>
      <trkpt lat="59.5467928" lon="17.4767871">
        <ele>37</ele>
        <time>2011-01-30T15:12:58Z</time>
      </trkpt>
      <trkpt lat="59.5466956" lon="17.4765435">
        <ele>39</ele>
        <time>2011-01-30T15:13:03Z</time>
      </trkpt>
      <trkpt lat="59.5466684" lon="17.4765388">
        <ele>39.4</ele>
        <time>2011-01-30T15:13:04Z</time>
      </trkpt>
      <trkpt lat="59.5465313" lon="17.4766171">
        <ele>40.2</ele>
        <time>2011-01-30T15:13:10Z</time>
      </trkpt>
      <trkpt lat="59.5463758" lon="17.4769248">
        <ele>40</ele>
        <time>2011-01-30T15:13:15Z</time>
      </trkpt>
      <trkpt lat="59.5461961" lon="17.4770973">
        <ele>39.8</ele>
        <time>2011-01-30T15:13:19Z</time>
      </trkpt>
      <trkpt lat="59.5460727" lon="17.4771413">
        <ele>39.8</ele>
        <time>2011-01-30T15:13:21Z</time>
      </trkpt>
      <trkpt lat="59.5460154" lon="17.477181">
        <ele>40.4</ele>
        <time>2011-01-30T15:13:22Z</time>
      </trkpt>
      <trkpt lat="59.5458617" lon="17.4773117">
        <ele>39.8</ele>
        <time>2011-01-30T15:13:25Z</time>
      </trkpt>
      <trkpt lat="59.5458097" lon="17.4773167">
        <ele>39.8</ele>
        <time>2011-01-30T15:13:26Z</time>
      </trkpt>
      <trkpt lat="59.5456532" lon="17.4771134">
        <ele>39</ele>
        <time>2011-01-30T15:13:29Z</time>
      </trkpt>
      <trkpt lat="59.5455648" lon="17.4769192">
        <ele>37.8</ele>
        <time>2011-01-30T15:13:31Z</time>
      </trkpt>
      <trkpt lat="59.5455302" lon="17.4768139">
        <ele>37.6</ele>
        <time>2011-01-30T15:13:32Z</time>
      </trkpt>
      <trkpt lat="59.5455167" lon="17.4767034">
        <ele>37.8</ele>
        <time>2011-01-30T15:13:33Z</time>
      </trkpt>
      <trkpt lat="59.5455117" lon="17.4763616">
        <ele>37.8</ele>
        <time>2011-01-30T15:13:36Z</time>
      </trkpt>
      <trkpt lat="59.5455077" lon="17.4761418">
        <ele>36</ele>
        <time>2011-01-30T15:13:38Z</time>
      </trkpt>
      <trkpt lat="59.5454705" lon="17.4759473">
        <ele>35.8</ele>
        <time>2011-01-30T15:13:40Z</time>
      </trkpt>
      <trkpt lat="59.5454363" lon="17.475771">
        <ele>34.8</ele>
        <time>2011-01-30T15:13:42Z</time>
      </trkpt>
      <trkpt lat="59.5453632" lon="17.4756587">
        <ele>34</ele>
        <time>2011-01-30T15:13:44Z</time>
      </trkpt>
      <trkpt lat="59.5453694" lon="17.4752621">
        <ele>33.6</ele>
        <time>2011-01-30T15:13:48Z</time>
      </trkpt>
      <trkpt lat="59.5454936" lon="17.4749558">
        <ele>34.2</ele>
        <time>2011-01-30T15:13:52Z</time>
      </trkpt>
      <trkpt lat="59.545554" lon="17.4748808">
        <ele>34</ele>
        <time>2011-01-30T15:13:53Z</time>
      </trkpt>
      <trkpt lat="59.5456388" lon="17.4747367">
        <ele>35</ele>
        <time>2011-01-30T15:13:55Z</time>
      </trkpt>
      <trkpt lat="59.5456844" lon="17.4746916">
        <ele>34.4</ele>
        <time>2011-01-30T15:13:56Z</time>
      </trkpt>
      <trkpt lat="59.5458637" lon="17.4745005">
        <ele>34.8</ele>
        <time>2011-01-30T15:14:00Z</time>
      </trkpt>
      <trkpt lat="59.5459098" lon="17.4744601">
        <ele>34.8</ele>
        <time>2011-01-30T15:14:01Z</time>
      </trkpt>
      <trkpt lat="59.5460501" lon="17.4742952">
        <ele>35.2</ele>
        <time>2011-01-30T15:14:05Z</time>
      </trkpt>
      <trkpt lat="59.5460819" lon="17.4742384">
        <ele>36.4</ele>
        <time>2011-01-30T15:14:06Z</time>
      </trkpt>
      <trkpt lat="59.5460946" lon="17.4739944">
        <ele>34.8</ele>
        <time>2011-01-30T15:14:10Z</time>
      </trkpt>
      <trkpt lat="59.5460753" lon="17.4738934">
        <ele>34.4</ele>
        <time>2011-01-30T15:14:11Z</time>
      </trkpt>
      <trkpt lat="59.5460228" lon="17.4735682">
        <ele>33.6</ele>
        <time>2011-01-30T15:14:14Z</time>
      </trkpt>
      <trkpt lat="59.5460813" lon="17.4731744">
        <ele>33.2</ele>
        <time>2011-01-30T15:14:17Z</time>
      </trkpt>
      <trkpt lat="59.5461795" lon="17.4730401">
        <ele>31.8</ele>
        <time>2011-01-30T15:14:19Z</time>
      </trkpt>
      <trkpt lat="59.5462293" lon="17.4729779">
        <ele>32.2</ele>
        <time>2011-01-30T15:14:20Z</time>
      </trkpt>
      <trkpt lat="59.5462716" lon="17.4729365">
        <ele>32</ele>
        <time>2011-01-30T15:14:21Z</time>
      </trkpt>
      <trkpt lat="59.5463302" lon="17.4728636">
        <ele>31.2</ele>
        <time>2011-01-30T15:14:23Z</time>
      </trkpt>
      <trkpt lat="59.5464444" lon="17.4726917">
        <ele>33.8</ele>
        <time>2011-01-30T15:14:27Z</time>
      </trkpt>
      <trkpt lat="59.5464847" lon="17.4726497">
        <ele>34.2</ele>
        <time>2011-01-30T15:14:28Z</time>
      </trkpt>
      <trkpt lat="59.5466105" lon="17.4725611">
        <ele>34.2</ele>
        <time>2011-01-30T15:14:31Z</time>
      </trkpt>
      <trkpt lat="59.5468323" lon="17.472615">
        <ele>31</ele>
        <time>2011-01-30T15:14:36Z</time>
      </trkpt>
      <trkpt lat="59.5468949" lon="17.4726357">
        <ele>31.2</ele>
        <time>2011-01-30T15:14:37Z</time>
      </trkpt>
      <trkpt lat="59.5470135" lon="17.4726653">
        <ele>31.4</ele>
        <time>2011-01-30T15:14:39Z</time>
      </trkpt>
      <trkpt lat="59.5471592" lon="17.4726813">
        <ele>31.6</ele>
        <time>2011-01-30T15:14:42Z</time>
      </trkpt>
      <trkpt lat="59.5472041" lon="17.4726828">
        <ele>32</ele>
        <time>2011-01-30T15:14:43Z</time>
      </trkpt>
      <trkpt lat="59.5472725" lon="17.4726953">
        <ele>32.4</ele>
        <time>2011-01-30T15:14:45Z</time>
      </trkpt>
      <trkpt lat="59.5473585" lon="17.4727448">
        <ele>34.2</ele>
        <time>2011-01-30T15:14:48Z</time>
      </trkpt>
      <trkpt lat="59.5473881" lon="17.4727677">
        <ele>35.2</ele>
        <time>2011-01-30T15:14:49Z</time>
      </trkpt>
      <trkpt lat="59.5475456" lon="17.4729138">
        <ele>36.8</ele>
        <time>2011-01-30T15:14:54Z</time>
      </trkpt>
      <trkpt lat="59.5475705" lon="17.4729488">
        <ele>36.4</ele>
        <time>2011-01-30T15:14:55Z</time>
      </trkpt>
      <trkpt lat="59.5477231" lon="17.4732277">
        <ele>38.2</ele>
        <time>2011-01-30T15:15:01Z</time>
      </trkpt>
      <trkpt lat="59.5478154" lon="17.4735995">
        <ele>41.2</ele>
        <time>2011-01-30T15:15:07Z</time>
      </trkpt>
      <trkpt lat="59.5478522" lon="17.4739674">
        <ele>45.2</ele>
        <time>2011-01-30T15:15:13Z</time>
      </trkpt>
      <trkpt lat="59.547807" lon="17.4742977">
        <ele>46.4</ele>
        <time>2011-01-30T15:15:19Z</time>
      </trkpt>
      <trkpt lat="59.5476912" lon="17.4745823">
        <ele>45.8</ele>
        <time>2011-01-30T15:15:24Z</time>
      </trkpt>
      <trkpt lat="59.547634" lon="17.4746621">
        <ele>45.6</ele>
        <time>2011-01-30T15:15:26Z</time>
      </trkpt>
      <trkpt lat="59.5475304" lon="17.4748056">
        <ele>45</ele>
        <time>2011-01-30T15:15:31Z</time>
      </trkpt>
      <trkpt lat="59.5474301" lon="17.4748906">
        <ele>44.8</ele>
        <time>2011-01-30T15:15:34Z</time>
      </trkpt>
      <trkpt lat="59.5473529" lon="17.474933">
        <ele>43.8</ele>
        <time>2011-01-30T15:15:36Z</time>
      </trkpt>
      <trkpt lat="59.5471833" lon="17.475135">
        <ele>47.4</ele>
        <time>2011-01-30T15:15:42Z</time>
      </trkpt>
      <trkpt lat="59.5471613" lon="17.4751701">
        <ele>46.6</ele>
        <time>2011-01-30T15:15:43Z</time>
      </trkpt>
      <trkpt lat="59.5470767" lon="17.4754202">
        <ele>48</ele>
        <time>2011-01-30T15:15:48Z</time>
      </trkpt>
      <trkpt lat="59.5469702" lon="17.475708">
        <ele>50.2</ele>
        <time>2011-01-30T15:15:53Z</time>
      </trkpt>
      <trkpt lat="59.546852" lon="17.4760406">
        <ele>51.6</ele>
        <time>2011-01-30T15:15:59Z</time>
      </trkpt>
      <trkpt lat="59.5467351" lon="17.4763359">
        <ele>50.4</ele>
        <time>2011-01-30T15:16:04Z</time>
      </trkpt>
      <trkpt lat="59.5467257" lon="17.4766533">
        <ele>44.6</ele>
        <time>2011-01-30T15:16:08Z</time>
      </trkpt>
      <trkpt lat="59.5467505" lon="17.4767874">
        <ele>41.8</ele>
        <time>2011-01-30T15:16:09Z</time>
      </trkpt>
      <trkpt lat="59.5468073" lon="17.4771568">
        <ele>39.6</ele>
        <time>2011-01-30T15:16:11Z</time>
      </trkpt>
      <trkpt lat="59.5467908" lon="17.4775371">
        <ele>39</ele>
        <time>2011-01-30T15:16:14Z</time>
      </trkpt>
      <trkpt lat="59.5467374" lon="17.4777161">
        <ele>38.6</ele>
        <time>2011-01-30T15:16:16Z</time>
      </trkpt>
      <trkpt lat="59.5467141" lon="17.4778015">
        <ele>39.8</ele>
        <time>2011-01-30T15:16:17Z</time>
      </trkpt>
      <trkpt lat="59.5466835" lon="17.4779136">
        <ele>40.2</ele>
        <time>2011-01-30T15:16:19Z</time>
      </trkpt>
      <trkpt lat="59.546575" lon="17.4782338">
        <ele>41.8</ele>
        <time>2011-01-30T15:16:26Z</time>
      </trkpt>
      <trkpt lat="59.5464863" lon="17.4785597">
        <ele>42.4</ele>
        <time>2011-01-30T15:16:32Z</time>
      </trkpt>
      <trkpt lat="59.5464889" lon="17.4786533">
        <ele>42.2</ele>
        <time>2011-01-30T15:16:33Z</time>
      </trkpt>
      <trkpt lat="59.5464905" lon="17.478917">
        <ele>41.4</ele>
        <time>2011-01-30T15:16:36Z</time>
      </trkpt>
      <trkpt lat="59.5464872" lon="17.4791852">
        <ele>40.8</ele>
        <time>2011-01-30T15:16:39Z</time>
      </trkpt>
      <trkpt lat="59.5464996" lon="17.4793392">
        <ele>39.2</ele>
        <time>2011-01-30T15:16:41Z</time>
      </trkpt>
      <trkpt lat="59.5464987" lon="17.4797878">
        <ele>37</ele>
        <time>2011-01-30T15:16:45Z</time>
      </trkpt>
      <trkpt lat="59.5464942" lon="17.480159">
        <ele>36.4</ele>
        <time>2011-01-30T15:16:49Z</time>
      </trkpt>
      <trkpt lat="59.5464993" lon="17.4802522">
        <ele>36.6</ele>
        <time>2011-01-30T15:16:50Z</time>
      </trkpt>
      <trkpt lat="59.5465256" lon="17.4805617">
        <ele>37.4</ele>
        <time>2011-01-30T15:16:53Z</time>
      </trkpt>
      <trkpt lat="59.5466738" lon="17.4808403">
        <ele>37.2</ele>
        <time>2011-01-30T15:16:58Z</time>
      </trkpt>
      <trkpt lat="59.5468352" lon="17.4809181">
        <ele>39.6</ele>
        <time>2011-01-30T15:17:02Z</time>
      </trkpt>
      <trkpt lat="59.5468734" lon="17.4809239">
        <ele>40.2</ele>
        <time>2011-01-30T15:17:03Z</time>
      </trkpt>
      <trkpt lat="59.5470763" lon="17.4809412">
        <ele>45.2</ele>
        <time>2011-01-30T15:17:10Z</time>
      </trkpt>
      <trkpt lat="59.5472381" lon="17.4807673">
        <ele>48.2</ele>
        <time>2011-01-30T15:17:16Z</time>
      </trkpt>
      <trkpt lat="59.5473774" lon="17.4804684">
        <ele>48.8</ele>
        <time>2011-01-30T15:17:21Z</time>
      </trkpt>
      <trkpt lat="59.5474815" lon="17.4802561">
        <ele>48.2</ele>
        <time>2011-01-30T15:17:24Z</time>
      </trkpt>
      <trkpt lat="59.547518" lon="17.4801922">
        <ele>47.8</ele>
        <time>2011-01-30T15:17:25Z</time>
      </trkpt>
      <trkpt lat="59.5476549" lon="17.4798904">
        <ele>44.6</ele>
        <time>2011-01-30T15:17:29Z</time>
      </trkpt>
      <trkpt lat="59.547732" lon="17.4797135">
        <ele>44.6</ele>
        <time>2011-01-30T15:17:31Z</time>
      </trkpt>
      <trkpt lat="59.5477633" lon="17.4796044">
        <ele>44</ele>
        <time>2011-01-30T15:17:32Z</time>
      </trkpt>
      <trkpt lat="59.5478438" lon="17.4792168">
        <ele>46.8</ele>
        <time>2011-01-30T15:17:35Z</time>
      </trkpt>
      <trkpt lat="59.548001" lon="17.4790341">
        <ele>44.4</ele>
        <time>2011-01-30T15:17:38Z</time>
      </trkpt>
      <trkpt lat="59.5481999" lon="17.4791543">
        <ele>44.4</ele>
        <time>2011-01-30T15:17:42Z</time>
      </trkpt>
      <trkpt lat="59.5482324" lon="17.4792236">
        <ele>44</ele>
        <time>2011-01-30T15:17:43Z</time>
      </trkpt>
      <trkpt lat="59.5482855" lon="17.4794945">
        <ele>42.4</ele>
        <time>2011-01-30T15:17:46Z</time>
      </trkpt>
      <trkpt lat="59.5482829" lon="17.4798448">
        <ele>39.6</ele>
        <time>2011-01-30T15:17:49Z</time>
      </trkpt>
      <trkpt lat="59.548273" lon="17.479951">
        <ele>39.2</ele>
        <time>2011-01-30T15:17:50Z</time>
      </trkpt>
      <trkpt lat="59.5481911" lon="17.4803056">
        <ele>39.6</ele>
        <time>2011-01-30T15:17:54Z</time>
      </trkpt>
      <trkpt lat="59.5481393" lon="17.4804522">
        <ele>39.4</ele>
        <time>2011-01-30T15:17:56Z</time>
      </trkpt>
      <trkpt lat="59.548113" lon="17.4805389">
        <ele>39</ele>
        <time>2011-01-30T15:17:57Z</time>
      </trkpt>
      <trkpt lat="59.548095" lon="17.4806166">
        <ele>39.2</ele>
        <time>2011-01-30T15:17:58Z</time>
      </trkpt>
      <trkpt lat="59.5480523" lon="17.4808513">
        <ele>38</ele>
        <time>2011-01-30T15:18:01Z</time>
      </trkpt>
      <trkpt lat="59.5480394" lon="17.4810066">
        <ele>37.6</ele>
        <time>2011-01-30T15:18:03Z</time>
      </trkpt>
      <trkpt lat="59.5480287" lon="17.4811479">
        <ele>38.6</ele>
        <time>2011-01-30T15:18:05Z</time>
      </trkpt>
      <trkpt lat="59.548023" lon="17.4814008">
        <ele>38.8</ele>
        <time>2011-01-30T15:18:08Z</time>
      </trkpt>
      <trkpt lat="59.548012" lon="17.4817956">
        <ele>39.8</ele>
        <time>2011-01-30T15:18:12Z</time>
      </trkpt>
      <trkpt lat="59.5479916" lon="17.4819853">
        <ele>40.6</ele>
        <time>2011-01-30T15:18:14Z</time>
      </trkpt>
      <trkpt lat="59.547965" lon="17.4821432">
        <ele>40.2</ele>
        <time>2011-01-30T15:18:16Z</time>
      </trkpt>
      <trkpt lat="59.5478693" lon="17.4824781">
        <ele>42.6</ele>
        <time>2011-01-30T15:18:20Z</time>
      </trkpt>
      <trkpt lat="59.5478063" lon="17.4826165">
        <ele>43.8</ele>
        <time>2011-01-30T15:18:22Z</time>
      </trkpt>
      <trkpt lat="59.5477768" lon="17.4826677">
        <ele>44.4</ele>
        <time>2011-01-30T15:18:23Z</time>
      </trkpt>
      <trkpt lat="59.5477146" lon="17.4827556">
        <ele>44.8</ele>
        <time>2011-01-30T15:18:25Z</time>
      </trkpt>
      <trkpt lat="59.5476143" lon="17.4828917">
        <ele>44.8</ele>
        <time>2011-01-30T15:18:28Z</time>
      </trkpt>
      <trkpt lat="59.547528" lon="17.4829819">
        <ele>45</ele>
        <time>2011-01-30T15:18:30Z</time>
      </trkpt>
      <trkpt lat="59.5474365" lon="17.4830916">
        <ele>45</ele>
        <time>2011-01-30T15:18:32Z</time>
      </trkpt>
      <trkpt lat="59.5473788" lon="17.4832086">
        <ele>46.8</ele>
        <time>2011-01-30T15:18:34Z</time>
      </trkpt>
      <trkpt lat="59.5473204" lon="17.4835997">
        <ele>46.6</ele>
        <time>2011-01-30T15:18:38Z</time>
      </trkpt>
      <trkpt lat="59.5473154" lon="17.4839826">
        <ele>45.8</ele>
        <time>2011-01-30T15:18:42Z</time>
      </trkpt>
      <trkpt lat="59.5473344" lon="17.484158">
        <ele>44.6</ele>
        <time>2011-01-30T15:18:44Z</time>
      </trkpt>
      <trkpt lat="59.5473778" lon="17.4843282">
        <ele>44.8</ele>
        <time>2011-01-30T15:18:46Z</time>
      </trkpt>
      <trkpt lat="59.547489" lon="17.484683">
        <ele>46.4</ele>
        <time>2011-01-30T15:18:50Z</time>
      </trkpt>
      <trkpt lat="59.5475349" lon="17.4850851">
        <ele>46.4</ele>
        <time>2011-01-30T15:18:54Z</time>
      </trkpt>
      <trkpt lat="59.547633" lon="17.485393">
        <ele>44</ele>
        <time>2011-01-30T15:18:59Z</time>
      </trkpt>
      <trkpt lat="59.5476833" lon="17.4853765">
        <ele>43.4</ele>
        <time>2011-01-30T15:19:00Z</time>
      </trkpt>
      <trkpt lat="59.5478464" lon="17.4853836">
        <ele>46</ele>
        <time>2011-01-30T15:19:03Z</time>
      </trkpt>
      <trkpt lat="59.5479465" lon="17.4853632">
        <ele>45</ele>
        <time>2011-01-30T15:19:05Z</time>
      </trkpt>
      <trkpt lat="59.5480616" lon="17.4853502">
        <ele>45.6</ele>
        <time>2011-01-30T15:19:07Z</time>
      </trkpt>
      <trkpt lat="59.5481869" lon="17.4853479">
        <ele>44.6</ele>
        <time>2011-01-30T15:19:10Z</time>
      </trkpt>
      <trkpt lat="59.5482634" lon="17.4854098">
        <ele>43.6</ele>
        <time>2011-01-30T15:19:12Z</time>
      </trkpt>
      <trkpt lat="59.5483121" lon="17.485446">
        <ele>43.6</ele>
        <time>2011-01-30T15:19:13Z</time>
      </trkpt>
      <trkpt lat="59.548418" lon="17.4855319">
        <ele>43.2</ele>
        <time>2011-01-30T15:19:15Z</time>
      </trkpt>
      <trkpt lat="59.5485319" lon="17.4857444">
        <ele>41.4</ele>
        <time>2011-01-30T15:19:18Z</time>
      </trkpt>
      <trkpt lat="59.5485668" lon="17.4858179">
        <ele>41.2</ele>
        <time>2011-01-30T15:19:19Z</time>
      </trkpt>
      <trkpt lat="59.5486447" lon="17.4859666">
        <ele>41.2</ele>
        <time>2011-01-30T15:19:21Z</time>
      </trkpt>
      <trkpt lat="59.5486981" lon="17.4861552">
        <ele>41</ele>
        <time>2011-01-30T15:19:23Z</time>
      </trkpt>
      <trkpt lat="59.5487195" lon="17.4864633">
        <ele>39.8</ele>
        <time>2011-01-30T15:19:26Z</time>
      </trkpt>
      <trkpt lat="59.5487265" lon="17.4865707">
        <ele>39.6</ele>
        <time>2011-01-30T15:19:27Z</time>
      </trkpt>
      <trkpt lat="59.5487464" lon="17.4866657">
        <ele>39.2</ele>
        <time>2011-01-30T15:19:28Z</time>
      </trkpt>
      <trkpt lat="59.5488089" lon="17.4868738">
        <ele>39</ele>
        <time>2011-01-30T15:19:31Z</time>
      </trkpt>
      <trkpt lat="59.5488376" lon="17.4869377">
        <ele>39.2</ele>
        <time>2011-01-30T15:19:32Z</time>
      </trkpt>
      <trkpt lat="59.548867" lon="17.48703">
        <ele>40</ele>
        <time>2011-01-30T15:19:33Z</time>
      </trkpt>
      <trkpt lat="59.5489924" lon="17.4872549">
        <ele>38.4</ele>
        <time>2011-01-30T15:19:36Z</time>
      </trkpt>
      <trkpt lat="59.5490322" lon="17.4873399">
        <ele>37.8</ele>
        <time>2011-01-30T15:19:37Z</time>
      </trkpt>
      <trkpt lat="59.5491049" lon="17.4875498">
        <ele>38.2</ele>
        <time>2011-01-30T15:19:39Z</time>
      </trkpt>
      <trkpt lat="59.5491161" lon="17.4879112">
        <ele>37.2</ele>
        <time>2011-01-30T15:19:42Z</time>
      </trkpt>
      <trkpt lat="59.5490976" lon="17.4883085">
        <ele>38</ele>
        <time>2011-01-30T15:19:46Z</time>
      </trkpt>
      <trkpt lat="59.5490972" lon="17.4883935">
        <ele>38.4</ele>
        <time>2011-01-30T15:19:47Z</time>
      </trkpt>
      <trkpt lat="59.5491038" lon="17.4885458">
        <ele>38.4</ele>
        <time>2011-01-30T15:19:49Z</time>
      </trkpt>
      <trkpt lat="59.5491132" lon="17.4887114">
        <ele>39</ele>
        <time>2011-01-30T15:19:51Z</time>
      </trkpt>
      <trkpt lat="59.5491215" lon="17.4887918">
        <ele>39</ele>
        <time>2011-01-30T15:19:52Z</time>
      </trkpt>
      <trkpt lat="59.5491664" lon="17.4889742">
        <ele>38.4</ele>
        <time>2011-01-30T15:19:55Z</time>
      </trkpt>
      <trkpt lat="59.5492295" lon="17.4891133">
        <ele>37.4</ele>
        <time>2011-01-30T15:19:57Z</time>
      </trkpt>
      <trkpt lat="59.5493847" lon="17.4893685">
        <ele>37.6</ele>
        <time>2011-01-30T15:20:00Z</time>
      </trkpt>
      <trkpt lat="59.5495439" lon="17.4896403">
        <ele>40.4</ele>
        <time>2011-01-30T15:20:03Z</time>
      </trkpt>
      <trkpt lat="59.5496743" lon="17.4899019">
        <ele>38.6</ele>
        <time>2011-01-30T15:20:06Z</time>
      </trkpt>
      <trkpt lat="59.5497528" lon="17.4902143">
        <ele>37.6</ele>
        <time>2011-01-30T15:20:09Z</time>
      </trkpt>
      <trkpt lat="59.549768" lon="17.490305">
        <ele>36.8</ele>
        <time>2011-01-30T15:20:10Z</time>
      </trkpt>
      <trkpt lat="59.5497197" lon="17.4906908">
        <ele>35.8</ele>
        <time>2011-01-30T15:20:14Z</time>
      </trkpt>
      <trkpt lat="59.5496884" lon="17.4908798">
        <ele>35.8</ele>
        <time>2011-01-30T15:20:16Z</time>
      </trkpt>
      <trkpt lat="59.5496488" lon="17.4910733">
        <ele>34.6</ele>
        <time>2011-01-30T15:20:18Z</time>
      </trkpt>
      <trkpt lat="59.5495354" lon="17.4914544">
        <ele>33</ele>
        <time>2011-01-30T15:20:22Z</time>
      </trkpt>
      <trkpt lat="59.549501" lon="17.4915477">
        <ele>34.2</ele>
        <time>2011-01-30T15:20:23Z</time>
      </trkpt>
      <trkpt lat="59.5494217" lon="17.4917202">
        <ele>35.4</ele>
        <time>2011-01-30T15:20:25Z</time>
      </trkpt>
      <trkpt lat="59.5493807" lon="17.4918077">
        <ele>36</ele>
        <time>2011-01-30T15:20:26Z</time>
      </trkpt>
      <trkpt lat="59.5493048" lon="17.4919689">
        <ele>35.8</ele>
        <time>2011-01-30T15:20:28Z</time>
      </trkpt>
      <trkpt lat="59.5492393" lon="17.4921409">
        <ele>34.8</ele>
        <time>2011-01-30T15:20:30Z</time>
      </trkpt>
      <trkpt lat="59.5491597" lon="17.4922849">
        <ele>33.6</ele>
        <time>2011-01-30T15:20:32Z</time>
      </trkpt>
      <trkpt lat="59.5490774" lon="17.492446">
        <ele>32.2</ele>
        <time>2011-01-30T15:20:34Z</time>
      </trkpt>
      <trkpt lat="59.5488992" lon="17.4927154">
        <ele>31.4</ele>
        <time>2011-01-30T15:20:38Z</time>
      </trkpt>
      <trkpt lat="59.5488059" lon="17.4927986">
        <ele>31.2</ele>
        <time>2011-01-30T15:20:40Z</time>
      </trkpt>
      <trkpt lat="59.548698" lon="17.4929028">
        <ele>28</ele>
        <time>2011-01-30T15:20:42Z</time>
      </trkpt>
    </trkseg>
  </trk>
</gpx>